CAL5231 PANC-RCTP
Flight info
| Callsign | CAL5231 |
|---|---|
| Flight time | 9h 51m |
| Altitude | 26000 |
| Route | TED DCT NODLE R220 NANZA/N0480F280 R220 NOGAL/N0503F300 R220 NODAN R217 ASTER Y514 SDE Y512 GTC Y142 NESKO/N0491F320 Y142 SAMON Y14 DGC Y28 ISAKY Y60 FUE Z40 IGMON A1 DRAKE DRAKE1A |
| Aircraft | B77L/H-SDE1E2E3FGHIJ2J3J4J5M1RWXY/LB1D1 |
Departure
| Time | 2026-05-04 17:14 |
|---|---|
| Airport | Ted Stevens Anchorage International Airport (PANC) |
Arrival
| Time | 2026-05-05 03:06 |
|---|---|
| Airport | Taiwan Taoyuan International Airport (RCTP) |
| Time | Latitude | Longitude | Altitude | Speed | Heading |
|---|---|---|---|---|---|
| 2026-05-04 16:53 | 61.17458 | -149.99114 | 167 ft | 0 kts | 69° |
| 2026-05-04 17:05 | 61.17455 | -149.99130 | 167 ft | 2 kts | 69° |
| 2026-05-04 17:05 | 61.17444 | -149.99188 | 167 ft | 2 kts | 69° |
| 2026-05-04 17:06 | 61.17441 | -149.99242 | 167 ft | 1 kts | 108° |
| 2026-05-04 17:06 | 61.17446 | -149.99266 | 167 ft | 1 kts | 126° |
| 2026-05-04 17:07 | 61.17468 | -149.99300 | 167 ft | 2 kts | 161° |
| 2026-05-04 17:07 | 61.17477 | -149.99306 | 167 ft | 2 kts | 160° |
| 2026-05-04 17:07 | 61.17486 | -149.99313 | 167 ft | 0 kts | 158° |
| 2026-05-04 17:09 | 61.17471 | -149.99301 | 167 ft | 4 kts | 158° |
| 2026-05-04 17:09 | 61.17426 | -149.99263 | 167 ft | 9 kts | 158° |
| 2026-05-04 17:10 | 61.17300 | -149.99182 | 167 ft | 9 kts | 161° |
| 2026-05-04 17:10 | 61.17124 | -149.99147 | 167 ft | 10 kts | 264° |
| 2026-05-04 17:11 | 61.17126 | -149.99312 | 167 ft | 12 kts | 271° |
| 2026-05-04 17:11 | 61.17127 | -149.99516 | 167 ft | 15 kts | 270° |
| 2026-05-04 17:11 | 61.17126 | -150.00012 | 167 ft | 18 kts | 270° |
| 2026-05-04 17:12 | 61.17126 | -150.00284 | 167 ft | 18 kts | 269° |
| 2026-05-04 17:12 | 61.17119 | -150.00797 | 167 ft | 10 kts | 231° |
| 2026-05-04 17:13 | 61.16976 | -150.00705 | 167 ft | 8 kts | 88° |
| 2026-05-04 17:14 | 61.16978 | -149.96686 | 167 ft | 182 kts | 90° |
| 2026-05-04 17:14 | 61.16970 | -149.93819 | 569 ft | 201 kts | 89° |
| 2026-05-04 17:14 | 61.17002 | -149.88274 | 2083 ft | 192 kts | 79° |
| 2026-05-04 17:15 | 61.17599 | -149.85794 | 2415 ft | 198 kts | 44° |
| 2026-05-04 17:15 | 61.20441 | -149.84302 | 2936 ft | 232 kts | 346° |
| 2026-05-04 17:16 | 61.23182 | -149.88734 | 3644 ft | 260 kts | 309° |
| 2026-05-04 17:16 | 61.24273 | -149.99927 | 5227 ft | 275 kts | 271° |
| 2026-05-04 17:17 | 61.24383 | -150.03919 | 5852 ft | 277 kts | 270° |
| 2026-05-04 17:17 | 61.24710 | -150.16054 | 7663 ft | 281 kts | 269° |
| 2026-05-04 17:18 | 61.24818 | -150.20166 | 8273 ft | 282 kts | 268° |
| 2026-05-04 17:18 | 61.25031 | -150.28442 | 9358 ft | 285 kts | 268° |
| 2026-05-04 17:19 | 61.25242 | -150.36800 | 10396 ft | 289 kts | 268° |
| 2026-05-04 17:19 | 61.25450 | -150.45367 | 11216 ft | 301 kts | 268° |
| 2026-05-04 17:20 | 61.25663 | -150.54662 | 11446 ft | 336 kts | 268° |
| 2026-05-04 17:20 | 61.25894 | -150.64966 | 11709 ft | 371 kts | 269° |
| 2026-05-04 17:20 | 61.26017 | -150.70480 | 11949 ft | 385 kts | 268° |
| 2026-05-04 17:21 | 61.26266 | -150.81773 | 13103 ft | 393 kts | 268° |
| 2026-05-04 17:21 | 61.26512 | -150.93326 | 14180 ft | 401 kts | 268° |
| 2026-05-04 17:22 | 61.26635 | -150.99255 | 14790 ft | 404 kts | 267° |
| 2026-05-04 17:22 | 61.26755 | -151.05153 | 15372 ft | 407 kts | 268° |
| 2026-05-04 17:23 | 61.27102 | -151.23048 | 17145 ft | 414 kts | 267° |
| 2026-05-04 17:23 | 61.27213 | -151.29036 | 17656 ft | 417 kts | 267° |
| 2026-05-04 17:23 | 61.27430 | -151.41263 | 18638 ft | 425 kts | 267° |
| 2026-05-04 17:24 | 61.27537 | -151.47519 | 19176 ft | 428 kts | 267° |
| 2026-05-04 17:24 | 61.27844 | -151.66342 | 20705 ft | 437 kts | 266° |
| 2026-05-04 17:25 | 61.27942 | -151.72708 | 21131 ft | 441 kts | 266° |
| 2026-05-04 17:25 | 61.28133 | -151.85643 | 21981 ft | 448 kts | 265° |
| 2026-05-04 17:26 | 61.28317 | -151.98845 | 22916 ft | 453 kts | 266° |
| 2026-05-04 17:26 | 61.28451 | -152.18835 | 24111 ft | 463 kts | 265° |
| 2026-05-04 17:27 | 61.28506 | -152.32390 | 24852 ft | 468 kts | 264° |
| 2026-05-04 17:27 | 61.28550 | -152.46219 | 25573 ft | 474 kts | 264° |
| 2026-05-04 17:28 | 61.28582 | -152.60375 | 25858 ft | 483 kts | 264° |
| 2026-05-04 17:29 | 61.28608 | -152.81447 | 25886 ft | 483 kts | 263° |
| 2026-05-04 17:29 | 61.28601 | -153.02460 | 25880 ft | 482 kts | 263° |
| 2026-05-04 17:30 | 61.28561 | -153.23465 | 25836 ft | 480 kts | 263° |
| 2026-05-04 17:31 | 61.28514 | -153.37799 | 25818 ft | 483 kts | 263° |
| 2026-05-04 17:31 | 61.28419 | -153.58830 | 25813 ft | 483 kts | 263° |
| 2026-05-04 17:32 | 61.28337 | -153.72859 | 25857 ft | 483 kts | 262° |
| 2026-05-04 17:33 | 61.28222 | -153.89590 | 25855 ft | 482 kts | 262° |
| 2026-05-04 17:33 | 61.28166 | -153.96730 | 25825 ft | 483 kts | 262° |
| 2026-05-04 17:34 | 61.27978 | -154.17906 | 25785 ft | 481 kts | 262° |
| 2026-05-04 17:34 | 61.27908 | -154.25037 | 25794 ft | 482 kts | 262° |
| 2026-05-04 17:35 | 61.27673 | -154.46388 | 25851 ft | 484 kts | 262° |
| 2026-05-04 17:35 | 61.27501 | -154.60397 | 25888 ft | 484 kts | 262° |
| 2026-05-04 17:35 | 61.27408 | -154.67497 | 25889 ft | 484 kts | 262° |
| 2026-05-04 17:36 | 61.27315 | -154.74446 | 25893 ft | 482 kts | 261° |
| 2026-05-04 17:36 | 61.27216 | -154.81494 | 25895 ft | 482 kts | 261° |
| 2026-05-04 17:36 | 61.27112 | -154.88583 | 25895 ft | 483 kts | 261° |
| 2026-05-04 17:36 | 61.27006 | -154.95636 | 25914 ft | 481 kts | 261° |
| 2026-05-04 17:37 | 61.26896 | -155.02647 | 25896 ft | 484 kts | 262° |
| 2026-05-04 17:37 | 61.26782 | -155.09700 | 25895 ft | 482 kts | 261° |
| 2026-05-04 17:37 | 61.26665 | -155.16766 | 25898 ft | 481 kts | 261° |
| 2026-05-04 17:37 | 61.26543 | -155.23874 | 25894 ft | 481 kts | 261° |
| 2026-05-04 17:38 | 61.26421 | -155.30771 | 25896 ft | 480 kts | 262° |
| 2026-05-04 17:38 | 61.26292 | -155.37839 | 25896 ft | 480 kts | 262° |
| 2026-05-04 17:38 | 61.26160 | -155.44875 | 25899 ft | 481 kts | 262° |
| 2026-05-04 17:38 | 61.26025 | -155.51827 | 25899 ft | 482 kts | 262° |
| 2026-05-04 17:39 | 61.25747 | -155.65767 | 25904 ft | 480 kts | 261° |
| 2026-05-04 17:39 | 61.25602 | -155.72699 | 25907 ft | 480 kts | 261° |
| 2026-05-04 17:39 | 61.25454 | -155.79666 | 25908 ft | 479 kts | 261° |
| 2026-05-04 17:40 | 61.25298 | -155.86787 | 25902 ft | 482 kts | 261° |
| 2026-05-04 17:40 | 61.25142 | -155.93750 | 25890 ft | 480 kts | 261° |
| 2026-05-04 17:40 | 61.24984 | -156.00668 | 25894 ft | 480 kts | 261° |
| 2026-05-04 17:40 | 61.24950 | -156.07614 | 25895 ft | 483 kts | 265° |
| 2026-05-04 17:41 | 61.25013 | -156.14609 | 25902 ft | 482 kts | 265° |
| 2026-05-04 17:41 | 61.25073 | -156.21674 | 25897 ft | 484 kts | 265° |
| 2026-05-04 17:41 | 61.25122 | -156.28754 | 25905 ft | 486 kts | 265° |
| 2026-05-04 17:41 | 61.25165 | -156.35794 | 25909 ft | 483 kts | 265° |
| 2026-05-04 17:42 | 61.25202 | -156.42886 | 25912 ft | 482 kts | 264° |
| 2026-05-04 17:42 | 61.25232 | -156.50058 | 25915 ft | 483 kts | 264° |
| 2026-05-04 17:42 | 61.25256 | -156.57074 | 25917 ft | 483 kts | 264° |
| 2026-05-04 17:42 | 61.25275 | -156.64067 | 25919 ft | 483 kts | 265° |
| 2026-05-04 17:43 | 61.25289 | -156.70895 | 25918 ft | 483 kts | 264° |
| 2026-05-04 17:43 | 61.25300 | -156.77869 | 25916 ft | 483 kts | 264° |
| 2026-05-04 17:43 | 61.25307 | -156.84921 | 25919 ft | 483 kts | 264° |
| 2026-05-04 17:43 | 61.25309 | -156.89946 | 25914 ft | 483 kts | 264° |
| 2026-05-04 17:44 | 61.25309 | -156.96512 | 25923 ft | 482 kts | 264° |
| 2026-05-04 17:44 | 61.25305 | -157.03488 | 25923 ft | 485 kts | 264° |
| 2026-05-04 17:44 | 61.25297 | -157.10529 | 25920 ft | 484 kts | 264° |
| 2026-05-04 17:44 | 61.25287 | -157.17514 | 25918 ft | 484 kts | 264° |
| 2026-05-04 17:45 | 61.25273 | -157.24535 | 25912 ft | 483 kts | 264° |
| 2026-05-04 17:45 | 61.25254 | -157.31523 | 25911 ft | 485 kts | 264° |
| 2026-05-04 17:45 | 61.25232 | -157.38522 | 25907 ft | 483 kts | 264° |
| 2026-05-04 17:45 | 61.25206 | -157.45602 | 25915 ft | 484 kts | 264° |
| 2026-05-04 17:46 | 61.25176 | -157.52653 | 25915 ft | 484 kts | 264° |
| 2026-05-04 17:46 | 61.25143 | -157.59654 | 25913 ft | 484 kts | 264° |
| 2026-05-04 17:46 | 61.25107 | -157.66667 | 25911 ft | 484 kts | 263° |
| 2026-05-04 17:46 | 61.25066 | -157.73773 | 25908 ft | 483 kts | 263° |
| 2026-05-04 17:47 | 61.25023 | -157.80759 | 25900 ft | 481 kts | 263° |
| 2026-05-04 17:47 | 61.24976 | -157.87732 | 25881 ft | 482 kts | 263° |
| 2026-05-04 17:47 | 61.24925 | -157.94670 | 25860 ft | 483 kts | 263° |
| 2026-05-04 17:47 | 61.24869 | -158.01704 | 25848 ft | 483 kts | 263° |
| 2026-05-04 17:48 | 61.24812 | -158.08679 | 25852 ft | 483 kts | 263° |
| 2026-05-04 17:48 | 61.24749 | -158.15651 | 25858 ft | 484 kts | 263° |
| 2026-05-04 17:48 | 61.24684 | -158.22675 | 25869 ft | 483 kts | 263° |
| 2026-05-04 17:48 | 61.24616 | -158.29599 | 25887 ft | 481 kts | 263° |
| 2026-05-04 17:49 | 61.24544 | -158.36519 | 25876 ft | 480 kts | 263° |
| 2026-05-04 17:49 | 61.24469 | -158.43462 | 25880 ft | 481 kts | 263° |
| 2026-05-04 17:49 | 61.24389 | -158.50426 | 25862 ft | 481 kts | 263° |
| 2026-05-04 17:49 | 61.24306 | -158.57361 | 25876 ft | 482 kts | 263° |
| 2026-05-04 17:50 | 61.24219 | -158.64348 | 25899 ft | 481 kts | 263° |
| 2026-05-04 17:50 | 61.24129 | -158.71368 | 25912 ft | 480 kts | 262° |
| 2026-05-04 17:50 | 61.24034 | -158.78363 | 25929 ft | 480 kts | 262° |
| 2026-05-04 17:50 | 61.23947 | -158.84665 | 25927 ft | 480 kts | 262° |
| 2026-05-04 17:51 | 61.23846 | -158.91614 | 25939 ft | 479 kts | 262° |
| 2026-05-04 17:51 | 61.23744 | -158.98482 | 25948 ft | 478 kts | 262° |
| 2026-05-04 17:51 | 61.23637 | -159.05409 | 25950 ft | 478 kts | 262° |
| 2026-05-04 17:51 | 61.23527 | -159.12302 | 25953 ft | 478 kts | 262° |
| 2026-05-04 17:52 | 61.23412 | -159.19246 | 25961 ft | 478 kts | 262° |
| 2026-05-04 17:52 | 61.23294 | -159.26196 | 25957 ft | 479 kts | 262° |
| 2026-05-04 17:52 | 61.23172 | -159.33128 | 25952 ft | 480 kts | 262° |
| 2026-05-04 17:52 | 61.23047 | -159.40073 | 25954 ft | 481 kts | 262° |
| 2026-05-04 17:53 | 61.22919 | -159.46967 | 25947 ft | 480 kts | 262° |
| 2026-05-04 17:53 | 61.22791 | -159.53729 | 25941 ft | 479 kts | 262° |
| 2026-05-04 17:53 | 61.22654 | -159.60739 | 25937 ft | 479 kts | 262° |
| 2026-05-04 17:53 | 61.22516 | -159.67616 | 25933 ft | 479 kts | 261° |
| 2026-05-04 17:54 | 61.22375 | -159.74464 | 25930 ft | 478 kts | 261° |
| 2026-05-04 17:54 | 61.22230 | -159.81354 | 25933 ft | 477 kts | 261° |
| 2026-05-04 17:54 | 61.22082 | -159.88222 | 25944 ft | 478 kts | 261° |
| 2026-05-04 17:54 | 61.21930 | -159.95119 | 25957 ft | 478 kts | 261° |
| 2026-05-04 17:55 | 61.21773 | -160.02028 | 25948 ft | 477 kts | 261° |
| 2026-05-04 17:55 | 61.21614 | -160.08966 | 25964 ft | 476 kts | 261° |
| 2026-05-04 17:55 | 61.21451 | -160.15846 | 25969 ft | 477 kts | 261° |
| 2026-05-04 17:55 | 61.21286 | -160.22670 | 25986 ft | 478 kts | 261° |
| 2026-05-04 17:56 | 61.21115 | -160.29619 | 25990 ft | 477 kts | 261° |
| 2026-05-04 17:56 | 61.20943 | -160.36469 | 25996 ft | 477 kts | 261° |
| 2026-05-04 17:56 | 61.20768 | -160.43251 | 25998 ft | 478 kts | 261° |
| 2026-05-04 17:56 | 61.20589 | -160.50130 | 25993 ft | 475 kts | 261° |
| 2026-05-04 17:57 | 61.20408 | -160.56947 | 26000 ft | 475 kts | 261° |
| 2026-05-04 17:57 | 61.20222 | -160.63753 | 26007 ft | 475 kts | 261° |
| 2026-05-04 17:57 | 61.20031 | -160.70642 | 26009 ft | 476 kts | 261° |
| 2026-05-04 17:57 | 61.19839 | -160.77461 | 26005 ft | 473 kts | 261° |
| 2026-05-04 17:58 | 61.19644 | -160.84277 | 26015 ft | 472 kts | 261° |
| 2026-05-04 17:58 | 61.19446 | -160.91064 | 26012 ft | 472 kts | 261° |
| 2026-05-04 17:58 | 61.19245 | -160.97821 | 26016 ft | 472 kts | 261° |
| 2026-05-04 17:58 | 61.19041 | -161.04588 | 26010 ft | 473 kts | 261° |
| 2026-05-04 17:59 | 61.18829 | -161.11473 | 26015 ft | 473 kts | 261° |
| 2026-05-04 17:59 | 61.18617 | -161.18266 | 26016 ft | 473 kts | 261° |
| 2026-05-04 17:59 | 61.18183 | -161.31848 | 26017 ft | 472 kts | 261° |
| 2026-05-04 18:00 | 61.17960 | -161.38646 | 26021 ft | 472 kts | 261° |
| 2026-05-04 18:00 | 61.17735 | -161.45412 | 26025 ft | 473 kts | 261° |
| 2026-05-04 18:00 | 61.17503 | -161.52290 | 26018 ft | 472 kts | 261° |
| 2026-05-04 18:00 | 61.17269 | -161.59099 | 26020 ft | 474 kts | 261° |
| 2026-05-04 18:01 | 61.17030 | -161.65964 | 26027 ft | 475 kts | 260° |
| 2026-05-04 18:01 | 61.16793 | -161.72699 | 26023 ft | 473 kts | 260° |
| 2026-05-04 18:01 | 61.16547 | -161.79593 | 26022 ft | 472 kts | 260° |
| 2026-05-04 18:02 | 61.16051 | -161.93169 | 26021 ft | 473 kts | 260° |
| 2026-05-04 18:02 | 61.15797 | -161.99977 | 26029 ft | 472 kts | 260° |
| 2026-05-04 18:02 | 61.15540 | -162.06784 | 26046 ft | 471 kts | 260° |
| 2026-05-04 18:02 | 61.15282 | -162.13521 | 26033 ft | 469 kts | 260° |
| 2026-05-04 18:03 | 61.15019 | -162.20299 | 26037 ft | 469 kts | 260° |
| 2026-05-04 18:03 | 61.14753 | -162.27046 | 26028 ft | 471 kts | 260° |
| 2026-05-04 18:03 | 61.14484 | -162.33801 | 26047 ft | 471 kts | 260° |
| 2026-05-04 18:03 | 61.14211 | -162.40559 | 26041 ft | 470 kts | 260° |
| 2026-05-04 18:04 | 61.13938 | -162.47249 | 26031 ft | 470 kts | 260° |
| 2026-05-04 18:04 | 61.13657 | -162.54048 | 26048 ft | 471 kts | 260° |
| 2026-05-04 18:04 | 61.13088 | -162.67570 | 26041 ft | 472 kts | 259° |
| 2026-05-04 18:05 | 61.12799 | -162.74303 | 26043 ft | 470 kts | 259° |
| 2026-05-04 18:05 | 61.12507 | -162.81055 | 26055 ft | 468 kts | 259° |
| 2026-05-04 18:05 | 61.12208 | -162.87856 | 26039 ft | 470 kts | 259° |
| 2026-05-04 18:05 | 61.11905 | -162.94530 | 26061 ft | 472 kts | 258° |
| 2026-05-04 18:06 | 61.10450 | -163.07811 | 26054 ft | 464 kts | 250° |
| 2026-05-04 18:06 | 61.09592 | -163.14269 | 26048 ft | 463 kts | 250° |
| 2026-05-04 18:06 | 61.08740 | -163.20583 | 26053 ft | 462 kts | 250° |
| 2026-05-04 18:07 | 61.07988 | -163.26088 | 26059 ft | 464 kts | 250° |
| 2026-05-04 18:07 | 61.07163 | -163.32062 | 26059 ft | 465 kts | 250° |
| 2026-05-04 18:07 | 61.06263 | -163.38528 | 26048 ft | 465 kts | 250° |
| 2026-05-04 18:07 | 61.05388 | -163.44772 | 26057 ft | 466 kts | 250° |
| 2026-05-04 18:08 | 61.04521 | -163.50914 | 26058 ft | 467 kts | 250° |
| 2026-05-04 18:08 | 61.03611 | -163.57327 | 26059 ft | 467 kts | 250° |
| 2026-05-04 18:08 | 61.02683 | -163.63841 | 26056 ft | 466 kts | 250° |
| 2026-05-04 18:08 | 61.01761 | -163.70271 | 26071 ft | 466 kts | 249° |
| 2026-05-04 18:09 | 60.99943 | -163.82878 | 26058 ft | 466 kts | 249° |
| 2026-05-04 18:09 | 60.98063 | -163.95798 | 26073 ft | 468 kts | 250° |
| 2026-05-04 18:10 | 60.97138 | -164.02125 | 26065 ft | 467 kts | 250° |
| 2026-05-04 18:10 | 60.96181 | -164.08635 | 26073 ft | 469 kts | 250° |
| 2026-05-04 18:10 | 60.95219 | -164.15152 | 26067 ft | 469 kts | 250° |
| 2026-05-04 18:10 | 60.94281 | -164.21489 | 26070 ft | 469 kts | 250° |
| 2026-05-04 18:11 | 60.93300 | -164.28090 | 26063 ft | 469 kts | 250° |
| 2026-05-04 18:11 | 60.92326 | -164.34616 | 26064 ft | 469 kts | 250° |
| 2026-05-04 18:11 | 60.91340 | -164.41197 | 26065 ft | 470 kts | 250° |
| 2026-05-04 18:11 | 60.90351 | -164.47771 | 26063 ft | 469 kts | 250° |
| 2026-05-04 18:12 | 60.89374 | -164.54239 | 26065 ft | 471 kts | 250° |
| 2026-05-04 18:12 | 60.88398 | -164.60678 | 26076 ft | 470 kts | 251° |
| 2026-05-04 18:12 | 60.87412 | -164.67163 | 26070 ft | 469 kts | 250° |
| 2026-05-04 18:12 | 60.86430 | -164.73593 | 26065 ft | 469 kts | 250° |
| 2026-05-04 18:13 | 60.85442 | -164.80037 | 26066 ft | 470 kts | 250° |
| 2026-05-04 18:13 | 60.84465 | -164.86386 | 26065 ft | 470 kts | 250° |
| 2026-05-04 18:13 | 60.82487 | -164.99175 | 26076 ft | 470 kts | 250° |
| 2026-05-04 18:14 | 60.81490 | -165.05582 | 26086 ft | 471 kts | 250° |
| 2026-05-04 18:14 | 60.80487 | -165.11999 | 26082 ft | 472 kts | 251° |
| 2026-05-04 18:14 | 60.79499 | -165.18303 | 26092 ft | 471 kts | 251° |
| 2026-05-04 18:15 | 60.77483 | -165.31096 | 26099 ft | 472 kts | 251° |
| 2026-05-04 18:15 | 60.75462 | -165.43823 | 26091 ft | 472 kts | 251° |
| 2026-05-04 18:15 | 60.74455 | -165.50128 | 26087 ft | 472 kts | 251° |
| 2026-05-04 18:16 | 60.73433 | -165.56505 | 26098 ft | 472 kts | 251° |
| 2026-05-04 18:16 | 60.72405 | -165.62900 | 26089 ft | 472 kts | 251° |
| 2026-05-04 18:16 | 60.71383 | -165.69234 | 26099 ft | 472 kts | 251° |
| 2026-05-04 18:17 | 60.69331 | -165.81885 | 26096 ft | 474 kts | 251° |
| 2026-05-04 18:17 | 60.68285 | -165.88298 | 26101 ft | 474 kts | 251° |
| 2026-05-04 18:17 | 60.66200 | -166.01013 | 26101 ft | 475 kts | 251° |
| 2026-05-04 18:18 | 60.65147 | -166.07402 | 26100 ft | 475 kts | 251° |
| 2026-05-04 18:18 | 60.64108 | -166.13684 | 26098 ft | 475 kts | 252° |
| 2026-05-04 18:18 | 60.63051 | -166.20053 | 26094 ft | 476 kts | 252° |
| 2026-05-04 18:18 | 60.61983 | -166.26462 | 26090 ft | 477 kts | 252° |
| 2026-05-04 18:19 | 60.59845 | -166.39227 | 26097 ft | 475 kts | 252° |
| 2026-05-04 18:19 | 60.58785 | -166.45531 | 26099 ft | 476 kts | 252° |
| 2026-05-04 18:19 | 60.57705 | -166.51921 | 26095 ft | 477 kts | 252° |
| 2026-05-04 18:20 | 60.56625 | -166.58295 | 26094 ft | 477 kts | 253° |
| 2026-05-04 18:20 | 60.55547 | -166.64632 | 26098 ft | 478 kts | 253° |
| 2026-05-04 18:20 | 60.54459 | -166.71004 | 26102 ft | 479 kts | 252° |
| 2026-05-04 18:20 | 60.53433 | -166.76994 | 26099 ft | 480 kts | 252° |
| 2026-05-04 18:21 | 60.52712 | -166.81192 | 26104 ft | 481 kts | 252° |
| 2026-05-04 18:21 | 60.51616 | -166.87558 | 26098 ft | 482 kts | 252° |
| 2026-05-04 18:21 | 60.50505 | -166.93988 | 26097 ft | 483 kts | 252° |
| 2026-05-04 18:21 | 60.49397 | -167.00378 | 26101 ft | 483 kts | 252° |
| 2026-05-04 18:22 | 60.48278 | -167.06804 | 26100 ft | 483 kts | 252° |
| 2026-05-04 18:22 | 60.47173 | -167.13132 | 26102 ft | 483 kts | 253° |
| 2026-05-04 18:22 | 60.46048 | -167.19551 | 26102 ft | 483 kts | 253° |
| 2026-05-04 18:22 | 60.44926 | -167.25935 | 26102 ft | 482 kts | 253° |
| 2026-05-04 18:23 | 60.43797 | -167.32335 | 26105 ft | 483 kts | 253° |
| 2026-05-04 18:23 | 60.42666 | -167.38724 | 26100 ft | 483 kts | 253° |
| 2026-05-04 18:23 | 60.41526 | -167.45145 | 26106 ft | 485 kts | 253° |
| 2026-05-04 18:23 | 60.40402 | -167.51453 | 26107 ft | 485 kts | 253° |
| 2026-05-04 18:24 | 60.39257 | -167.57849 | 26106 ft | 484 kts | 253° |
| 2026-05-04 18:24 | 60.38111 | -167.64238 | 26111 ft | 485 kts | 253° |
| 2026-05-04 18:24 | 60.36962 | -167.70624 | 26112 ft | 486 kts | 252° |
| 2026-05-04 18:24 | 60.35799 | -167.77060 | 26111 ft | 486 kts | 252° |
| 2026-05-04 18:25 | 60.34638 | -167.83464 | 26112 ft | 486 kts | 252° |
| 2026-05-04 18:25 | 60.33466 | -167.89908 | 26119 ft | 488 kts | 252° |
| 2026-05-04 18:25 | 60.32309 | -167.96248 | 26121 ft | 488 kts | 253° |
| 2026-05-04 18:25 | 60.31132 | -168.02678 | 26121 ft | 488 kts | 252° |
| 2026-05-04 18:26 | 60.29965 | -168.09093 | 26124 ft | 489 kts | 253° |
| 2026-05-04 18:26 | 60.28810 | -168.15536 | 26125 ft | 488 kts | 253° |
| 2026-05-04 18:26 | 60.27669 | -168.21887 | 26132 ft | 488 kts | 253° |
| 2026-05-04 18:26 | 60.26500 | -168.28375 | 26131 ft | 488 kts | 253° |
| 2026-05-04 18:27 | 60.25354 | -168.34705 | 26134 ft | 488 kts | 253° |
| 2026-05-04 18:27 | 60.24181 | -168.41159 | 26135 ft | 488 kts | 253° |
| 2026-05-04 18:27 | 60.23015 | -168.47554 | 26136 ft | 488 kts | 253° |
| 2026-05-04 18:27 | 60.21851 | -168.53915 | 26138 ft | 487 kts | 253° |
| 2026-05-04 18:28 | 60.20675 | -168.60321 | 26142 ft | 487 kts | 253° |
| 2026-05-04 18:28 | 60.19490 | -168.66751 | 26141 ft | 488 kts | 252° |
| 2026-05-04 18:28 | 60.18312 | -168.73128 | 26147 ft | 489 kts | 252° |
| 2026-05-04 18:28 | 60.17132 | -168.79486 | 26147 ft | 489 kts | 252° |
| 2026-05-04 18:29 | 60.15948 | -168.85846 | 26152 ft | 488 kts | 252° |
| 2026-05-04 18:29 | 60.14752 | -168.92250 | 26150 ft | 488 kts | 252° |
| 2026-05-04 18:29 | 60.13553 | -168.98651 | 26152 ft | 491 kts | 252° |
| 2026-05-04 18:29 | 60.12357 | -169.05013 | 26155 ft | 490 kts | 252° |
| 2026-05-04 18:30 | 60.09943 | -169.17789 | 26159 ft | 489 kts | 252° |
| 2026-05-04 18:30 | 60.08726 | -169.24200 | 26159 ft | 490 kts | 252° |
| 2026-05-04 18:30 | 60.07513 | -169.30569 | 26157 ft | 489 kts | 252° |
| 2026-05-04 18:31 | 60.06301 | -169.36909 | 26162 ft | 489 kts | 252° |
| 2026-05-04 18:31 | 60.05074 | -169.43311 | 26167 ft | 489 kts | 252° |
| 2026-05-04 18:31 | 60.03859 | -169.49631 | 26163 ft | 489 kts | 252° |
| 2026-05-04 18:31 | 60.02643 | -169.55931 | 26169 ft | 489 kts | 253° |
| 2026-05-04 18:32 | 60.01418 | -169.62260 | 26167 ft | 489 kts | 252° |
| 2026-05-04 18:32 | 60.00174 | -169.68665 | 26171 ft | 489 kts | 252° |
| 2026-05-04 18:32 | 59.98949 | -169.74948 | 26172 ft | 489 kts | 252° |
| 2026-05-04 18:32 | 59.97709 | -169.81294 | 26172 ft | 490 kts | 252° |
| 2026-05-04 18:33 | 59.96465 | -169.87637 | 26172 ft | 490 kts | 252° |
| 2026-05-04 18:33 | 59.95230 | -169.93918 | 26172 ft | 490 kts | 252° |
| 2026-05-04 18:33 | 59.93972 | -170.00295 | 26177 ft | 491 kts | 252° |
| 2026-05-04 18:33 | 59.92727 | -170.06580 | 26175 ft | 490 kts | 252° |
| 2026-05-04 18:34 | 59.91464 | -170.12944 | 26172 ft | 491 kts | 252° |
| 2026-05-04 18:34 | 59.90217 | -170.19202 | 26171 ft | 491 kts | 252° |
| 2026-05-04 18:34 | 59.88944 | -170.25571 | 26152 ft | 491 kts | 252° |
| 2026-05-04 18:34 | 59.87689 | -170.31830 | 26159 ft | 491 kts | 252° |
| 2026-05-04 18:35 | 59.86409 | -170.38193 | 26154 ft | 492 kts | 252° |
| 2026-05-04 18:35 | 59.85137 | -170.44502 | 26153 ft | 491 kts | 252° |
| 2026-05-04 18:35 | 59.83873 | -170.50748 | 26154 ft | 491 kts | 252° |
| 2026-05-04 18:35 | 59.82587 | -170.57079 | 26156 ft | 491 kts | 252° |
| 2026-05-04 18:36 | 59.81313 | -170.63339 | 26159 ft | 491 kts | 252° |
| 2026-05-04 18:36 | 59.80023 | -170.69650 | 26166 ft | 492 kts | 251° |
| 2026-05-04 18:36 | 59.78734 | -170.75944 | 26167 ft | 492 kts | 251° |
| 2026-05-04 18:36 | 59.77452 | -170.82179 | 26164 ft | 492 kts | 251° |
| 2026-05-04 18:37 | 59.76141 | -170.88542 | 26166 ft | 493 kts | 251° |
| 2026-05-04 18:37 | 59.74841 | -170.94823 | 26166 ft | 492 kts | 251° |
| 2026-05-04 18:37 | 59.73542 | -171.01085 | 26166 ft | 492 kts | 251° |
| 2026-05-04 18:37 | 59.72230 | -171.07391 | 26169 ft | 493 kts | 251° |
| 2026-05-04 18:38 | 59.70931 | -171.13612 | 26169 ft | 492 kts | 251° |
| 2026-05-04 18:38 | 59.69632 | -171.19817 | 26170 ft | 491 kts | 251° |
| 2026-05-04 18:38 | 59.68311 | -171.26105 | 26168 ft | 491 kts | 251° |
| 2026-05-04 18:38 | 59.66990 | -171.32376 | 26171 ft | 493 kts | 251° |
| 2026-05-04 18:39 | 59.65687 | -171.38545 | 26174 ft | 492 kts | 251° |
| 2026-05-04 18:39 | 59.64367 | -171.44771 | 26168 ft | 490 kts | 251° |
| 2026-05-04 18:39 | 59.63037 | -171.51028 | 26170 ft | 492 kts | 251° |
| 2026-05-04 18:39 | 59.61721 | -171.57199 | 26171 ft | 492 kts | 251° |
| 2026-05-04 18:40 | 59.60394 | -171.63408 | 26171 ft | 492 kts | 251° |
| 2026-05-04 18:40 | 59.59050 | -171.69672 | 26170 ft | 492 kts | 250° |
| 2026-05-04 18:40 | 59.57727 | -171.75824 | 26171 ft | 492 kts | 250° |
| 2026-05-04 18:40 | 59.56388 | -171.82028 | 26169 ft | 492 kts | 250° |
| 2026-05-04 18:41 | 59.55039 | -171.88260 | 26171 ft | 492 kts | 250° |
| 2026-05-04 18:41 | 59.53721 | -171.94450 | 26170 ft | 492 kts | 251° |
| 2026-05-04 18:41 | 59.52454 | -172.00702 | 26168 ft | 492 kts | 251° |
| 2026-05-04 18:41 | 59.51179 | -172.07001 | 26175 ft | 492 kts | 251° |
| 2026-05-04 18:42 | 59.49920 | -172.13197 | 26173 ft | 492 kts | 251° |
| 2026-05-04 18:42 | 59.48640 | -172.19463 | 26176 ft | 492 kts | 251° |
| 2026-05-04 18:42 | 59.47364 | -172.25688 | 26176 ft | 491 kts | 251° |
| 2026-05-04 18:42 | 59.46081 | -172.31921 | 26178 ft | 492 kts | 251° |
| 2026-05-04 18:43 | 59.44804 | -172.38104 | 26179 ft | 491 kts | 251° |
| 2026-05-04 18:43 | 59.43517 | -172.44313 | 26179 ft | 491 kts | 251° |
| 2026-05-04 18:43 | 59.42224 | -172.50532 | 26178 ft | 491 kts | 251° |
| 2026-05-04 18:43 | 59.40926 | -172.56752 | 26183 ft | 490 kts | 251° |
| 2026-05-04 18:44 | 59.39642 | -172.62886 | 26182 ft | 491 kts | 251° |
| 2026-05-04 18:44 | 59.38761 | -172.67085 | 26186 ft | 490 kts | 250° |
| 2026-05-04 18:44 | 59.37035 | -172.75284 | 26189 ft | 490 kts | 250° |
| 2026-05-04 18:44 | 59.35738 | -172.81426 | 26187 ft | 490 kts | 250° |
| 2026-05-04 18:45 | 59.34432 | -172.87589 | 26190 ft | 490 kts | 250° |
| 2026-05-04 18:45 | 59.33125 | -172.93736 | 26194 ft | 491 kts | 250° |
| 2026-05-04 18:45 | 59.31810 | -172.99907 | 26194 ft | 491 kts | 250° |
| 2026-05-04 18:45 | 59.30486 | -173.06099 | 26194 ft | 491 kts | 250° |
| 2026-05-04 18:46 | 59.29179 | -173.12190 | 26197 ft | 491 kts | 250° |
| 2026-05-04 18:46 | 59.27854 | -173.18350 | 26196 ft | 490 kts | 250° |
| 2026-05-04 18:46 | 59.26539 | -173.24448 | 26195 ft | 490 kts | 250° |
| 2026-05-04 18:46 | 59.25211 | -173.30582 | 26200 ft | 490 kts | 250° |
| 2026-05-04 18:47 | 59.23877 | -173.36732 | 26201 ft | 490 kts | 250° |
| 2026-05-04 18:47 | 59.22557 | -173.42795 | 26208 ft | 490 kts | 250° |
| 2026-05-04 18:47 | 59.21221 | -173.48915 | 26208 ft | 490 kts | 250° |
| 2026-05-04 18:47 | 59.19893 | -173.54980 | 26212 ft | 490 kts | 250° |
| 2026-05-04 18:48 | 59.18545 | -173.61121 | 26213 ft | 490 kts | 250° |
| 2026-05-04 18:48 | 59.17194 | -173.67255 | 26214 ft | 490 kts | 250° |
| 2026-05-04 18:48 | 59.15863 | -173.73279 | 26216 ft | 491 kts | 250° |
| 2026-05-04 18:48 | 59.14514 | -173.79373 | 26216 ft | 490 kts | 250° |
| 2026-05-04 18:49 | 59.13151 | -173.85507 | 26217 ft | 490 kts | 250° |
| 2026-05-04 18:49 | 59.11791 | -173.91611 | 26217 ft | 491 kts | 250° |
| 2026-05-04 18:49 | 59.10443 | -173.97647 | 26217 ft | 490 kts | 250° |
| 2026-05-04 18:49 | 59.09075 | -174.03748 | 26215 ft | 490 kts | 250° |
| 2026-05-04 18:50 | 59.07724 | -174.09760 | 26217 ft | 490 kts | 250° |
| 2026-05-04 18:50 | 59.06356 | -174.15832 | 26215 ft | 491 kts | 250° |
| 2026-05-04 18:50 | 59.04989 | -174.21883 | 26217 ft | 490 kts | 251° |
| 2026-05-04 18:50 | 59.03674 | -174.27893 | 26213 ft | 490 kts | 251° |
| 2026-05-04 18:51 | 59.02343 | -174.34047 | 26219 ft | 490 kts | 251° |
| 2026-05-04 18:51 | 59.01011 | -174.40183 | 26214 ft | 489 kts | 252° |
| 2026-05-04 18:51 | 58.99691 | -174.46243 | 26219 ft | 490 kts | 252° |
| 2026-05-04 18:51 | 58.98358 | -174.52336 | 26215 ft | 489 kts | 252° |
| 2026-05-04 18:52 | 58.97031 | -174.58386 | 26217 ft | 490 kts | 252° |
| 2026-05-04 18:52 | 58.95691 | -174.64473 | 26219 ft | 491 kts | 252° |
| 2026-05-04 18:52 | 58.94365 | -174.70479 | 26216 ft | 492 kts | 251° |
| 2026-05-04 18:52 | 58.93011 | -174.76593 | 26220 ft | 493 kts | 251° |
| 2026-05-04 18:53 | 58.91655 | -174.82693 | 26216 ft | 492 kts | 251° |
| 2026-05-04 18:53 | 58.90313 | -174.88716 | 26218 ft | 493 kts | 251° |
| 2026-05-04 18:53 | 58.88948 | -174.94818 | 26204 ft | 493 kts | 252° |
| 2026-05-04 18:53 | 58.87581 | -175.00917 | 26214 ft | 493 kts | 251° |
| 2026-05-04 18:54 | 58.86234 | -175.06908 | 26201 ft | 492 kts | 252° |
| 2026-05-04 18:54 | 58.84867 | -175.12968 | 26210 ft | 492 kts | 251° |
| 2026-05-04 18:54 | 58.83486 | -175.19075 | 26203 ft | 492 kts | 251° |
| 2026-05-04 18:54 | 58.82125 | -175.25075 | 26206 ft | 492 kts | 251° |
| 2026-05-04 18:55 | 58.80735 | -175.31183 | 26210 ft | 493 kts | 251° |
| 2026-05-04 18:55 | 58.77980 | -175.43243 | 26205 ft | 493 kts | 251° |
| 2026-05-04 18:55 | 58.76585 | -175.49327 | 26207 ft | 493 kts | 251° |
| 2026-05-04 18:56 | 58.75214 | -175.55287 | 26211 ft | 493 kts | 251° |
| 2026-05-04 18:56 | 58.73812 | -175.61363 | 26206 ft | 494 kts | 251° |
| 2026-05-04 18:56 | 58.72419 | -175.67383 | 26210 ft | 494 kts | 251° |
| 2026-05-04 18:56 | 58.71030 | -175.73370 | 26208 ft | 495 kts | 250° |
| 2026-05-04 18:57 | 58.69621 | -175.79427 | 26210 ft | 496 kts | 250° |
| 2026-05-04 18:57 | 58.68200 | -175.85516 | 26211 ft | 495 kts | 251° |
| 2026-05-04 18:57 | 58.66806 | -175.91470 | 26210 ft | 494 kts | 251° |
| 2026-05-04 18:57 | 58.65400 | -175.97464 | 26211 ft | 496 kts | 250° |
| 2026-05-04 18:58 | 58.63967 | -176.03557 | 26214 ft | 495 kts | 250° |
| 2026-05-04 18:58 | 58.62552 | -176.09551 | 26211 ft | 494 kts | 250° |
| 2026-05-04 18:58 | 58.61141 | -176.15514 | 26211 ft | 495 kts | 250° |
| 2026-05-04 18:58 | 58.59710 | -176.21545 | 26211 ft | 494 kts | 250° |
| 2026-05-04 18:59 | 58.58302 | -176.27463 | 26212 ft | 494 kts | 250° |
| 2026-05-04 18:59 | 58.56862 | -176.33501 | 26212 ft | 494 kts | 250° |
| 2026-05-04 18:59 | 58.55435 | -176.39461 | 26214 ft | 494 kts | 250° |
| 2026-05-04 18:59 | 58.53994 | -176.45468 | 26208 ft | 494 kts | 250° |
| 2026-05-04 19:00 | 58.52570 | -176.51388 | 26214 ft | 495 kts | 250° |
| 2026-05-04 19:00 | 58.51127 | -176.57370 | 26217 ft | 495 kts | 250° |
| 2026-05-04 19:00 | 58.49676 | -176.63368 | 26221 ft | 495 kts | 250° |
| 2026-05-04 19:00 | 58.48249 | -176.69253 | 26227 ft | 496 kts | 249° |
| 2026-05-04 19:01 | 58.46796 | -176.75227 | 26229 ft | 496 kts | 249° |
| 2026-05-04 19:01 | 58.45347 | -176.81166 | 26225 ft | 495 kts | 249° |
| 2026-05-04 19:01 | 58.43893 | -176.87114 | 26231 ft | 496 kts | 249° |
| 2026-05-04 19:01 | 58.42429 | -176.93083 | 26231 ft | 496 kts | 249° |
| 2026-05-04 19:02 | 58.40961 | -176.99054 | 26234 ft | 496 kts | 249° |
| 2026-05-04 19:02 | 58.39503 | -177.04965 | 26234 ft | 496 kts | 249° |
| 2026-05-04 19:02 | 58.38027 | -177.10936 | 26238 ft | 496 kts | 249° |
| 2026-05-04 19:02 | 58.36566 | -177.16850 | 26233 ft | 496 kts | 249° |
| 2026-05-04 19:03 | 58.35088 | -177.22830 | 26240 ft | 497 kts | 249° |
| 2026-05-04 19:03 | 58.33619 | -177.28757 | 26234 ft | 496 kts | 249° |
| 2026-05-04 19:03 | 58.32155 | -177.34647 | 26238 ft | 496 kts | 249° |
| 2026-05-04 19:03 | 58.30685 | -177.40541 | 26238 ft | 496 kts | 249° |
| 2026-05-04 19:04 | 58.29198 | -177.46492 | 26235 ft | 496 kts | 249° |
| 2026-05-04 19:04 | 58.27727 | -177.52361 | 26236 ft | 496 kts | 249° |
| 2026-05-04 19:04 | 58.26245 | -177.58258 | 26236 ft | 496 kts | 249° |
| 2026-05-04 19:04 | 58.24765 | -177.64128 | 26236 ft | 495 kts | 249° |
| 2026-05-04 19:05 | 58.23257 | -177.70099 | 26240 ft | 497 kts | 248° |
| 2026-05-04 19:05 | 58.21780 | -177.75928 | 26238 ft | 497 kts | 248° |
| 2026-05-04 19:05 | 58.20272 | -177.81865 | 26238 ft | 496 kts | 248° |
| 2026-05-04 19:05 | 58.18776 | -177.87738 | 26239 ft | 497 kts | 248° |
| 2026-05-04 19:06 | 58.17277 | -177.93608 | 26239 ft | 496 kts | 248° |
| 2026-05-04 19:06 | 58.15771 | -177.99490 | 26238 ft | 496 kts | 248° |
| 2026-05-04 19:06 | 58.14276 | -178.05313 | 26239 ft | 496 kts | 248° |
| 2026-05-04 19:06 | 58.12750 | -178.11238 | 26238 ft | 495 kts | 248° |
| 2026-05-04 19:07 | 58.11236 | -178.17107 | 26239 ft | 496 kts | 248° |
| 2026-05-04 19:07 | 58.09719 | -178.22969 | 26239 ft | 497 kts | 248° |
| 2026-05-04 19:07 | 58.08210 | -178.28789 | 26239 ft | 497 kts | 248° |
| 2026-05-04 19:07 | 58.06697 | -178.34604 | 26239 ft | 497 kts | 248° |
| 2026-05-04 19:08 | 58.05151 | -178.40530 | 26239 ft | 497 kts | 248° |
| 2026-05-04 19:08 | 58.03639 | -178.46315 | 26238 ft | 497 kts | 248° |
| 2026-05-04 19:08 | 58.02099 | -178.52188 | 26239 ft | 497 kts | 248° |
| 2026-05-04 19:08 | 58.00572 | -178.57996 | 26239 ft | 497 kts | 248° |
| 2026-05-04 19:09 | 57.99046 | -178.63788 | 26238 ft | 496 kts | 248° |
| 2026-05-04 19:09 | 57.97509 | -178.69601 | 26238 ft | 497 kts | 246° |
| 2026-05-04 19:09 | 57.95967 | -178.75423 | 26240 ft | 497 kts | 246° |
| 2026-05-04 19:09 | 57.94421 | -178.81245 | 26240 ft | 497 kts | 246° |
| 2026-05-04 19:10 | 57.92881 | -178.87030 | 26237 ft | 496 kts | 246° |
| 2026-05-04 19:10 | 57.91328 | -178.92845 | 26239 ft | 496 kts | 246° |
| 2026-05-04 19:10 | 57.89784 | -178.98614 | 26240 ft | 496 kts | 246° |
| 2026-05-04 19:10 | 57.88234 | -179.04393 | 26230 ft | 495 kts | 246° |
| 2026-05-04 19:11 | 57.86696 | -179.10110 | 26234 ft | 496 kts | 246° |
| 2026-05-04 19:11 | 57.85117 | -179.15965 | 26227 ft | 496 kts | 246° |
| 2026-05-04 19:11 | 57.83561 | -179.21721 | 26229 ft | 496 kts | 246° |
| 2026-05-04 19:11 | 57.82003 | -179.27466 | 26233 ft | 496 kts | 246° |
| 2026-05-04 19:12 | 57.80436 | -179.33232 | 26231 ft | 496 kts | 246° |
| 2026-05-04 19:12 | 57.77292 | -179.44757 | 26230 ft | 497 kts | 246° |
| 2026-05-04 19:12 | 57.75732 | -179.50455 | 26234 ft | 497 kts | 245° |
| 2026-05-04 19:13 | 57.74156 | -179.56197 | 26232 ft | 497 kts | 245° |
| 2026-05-04 19:13 | 57.72570 | -179.61958 | 26236 ft | 497 kts | 245° |
| 2026-05-04 19:13 | 57.70982 | -179.67714 | 26231 ft | 497 kts | 245° |
| 2026-05-04 19:13 | 57.69396 | -179.73447 | 26230 ft | 496 kts | 245° |
| 2026-05-04 19:14 | 57.67804 | -179.79189 | 26234 ft | 496 kts | 245° |
| 2026-05-04 19:14 | 57.66236 | -179.84831 | 26234 ft | 495 kts | 245° |
| 2026-05-04 19:14 | 57.64642 | -179.90552 | 26233 ft | 495 kts | 245° |
| 2026-05-04 19:14 | 57.63038 | -179.96292 | 26232 ft | 495 kts | 245° |
| 2026-05-04 19:15 | 57.61448 | 179.98030 | 26233 ft | 496 kts | 245° |
| 2026-05-04 19:15 | 57.59851 | 179.92342 | 26235 ft | 495 kts | 245° |
| 2026-05-04 19:15 | 57.58261 | 179.86696 | 26236 ft | 495 kts | 245° |
| 2026-05-04 19:15 | 57.56657 | 179.81010 | 26234 ft | 494 kts | 245° |
| 2026-05-04 19:16 | 57.55056 | 179.75349 | 26236 ft | 495 kts | 245° |
| 2026-05-04 19:16 | 57.53455 | 179.69704 | 26239 ft | 495 kts | 245° |
| 2026-05-04 19:16 | 57.51844 | 179.64037 | 26241 ft | 495 kts | 245° |
| 2026-05-04 19:16 | 57.50245 | 179.58423 | 26245 ft | 495 kts | 245° |
| 2026-05-04 19:17 | 57.48620 | 179.52734 | 26244 ft | 495 kts | 245° |
| 2026-05-04 19:17 | 57.47010 | 179.47113 | 26245 ft | 494 kts | 245° |
| 2026-05-04 19:17 | 57.45392 | 179.41475 | 26245 ft | 494 kts | 245° |
| 2026-05-04 19:17 | 57.43783 | 179.35883 | 26242 ft | 495 kts | 245° |
| 2026-05-04 19:18 | 57.42170 | 179.30290 | 26248 ft | 494 kts | 244° |
| 2026-05-04 19:18 | 57.40543 | 179.24664 | 26250 ft | 495 kts | 244° |
| 2026-05-04 19:18 | 57.38917 | 179.19054 | 26250 ft | 494 kts | 244° |
| 2026-05-04 19:18 | 57.37282 | 179.13426 | 26256 ft | 494 kts | 244° |
| 2026-05-04 19:19 | 57.35666 | 179.07877 | 26256 ft | 494 kts | 244° |
| 2026-05-04 19:19 | 57.34008 | 179.02200 | 26255 ft | 494 kts | 244° |
| 2026-05-04 19:19 | 57.32375 | 178.96619 | 26256 ft | 494 kts | 244° |
| 2026-05-04 19:19 | 57.30734 | 178.91023 | 26254 ft | 494 kts | 244° |
| 2026-05-04 19:20 | 57.29112 | 178.85510 | 26256 ft | 494 kts | 244° |
| 2026-05-04 19:20 | 57.27467 | 178.79925 | 26255 ft | 494 kts | 244° |
| 2026-05-04 19:20 | 57.25811 | 178.74324 | 26257 ft | 494 kts | 244° |
| 2026-05-04 19:20 | 57.24163 | 178.68758 | 26254 ft | 494 kts | 244° |
| 2026-05-04 19:21 | 57.22513 | 178.63202 | 26256 ft | 494 kts | 244° |
| 2026-05-04 19:21 | 57.20853 | 178.57625 | 26256 ft | 493 kts | 244° |
| 2026-05-04 19:21 | 57.19198 | 178.52075 | 26258 ft | 493 kts | 244° |
| 2026-05-04 19:21 | 57.17532 | 178.46504 | 26257 ft | 494 kts | 244° |
| 2026-05-04 19:22 | 57.15877 | 178.40981 | 26257 ft | 494 kts | 244° |
| 2026-05-04 19:22 | 57.14227 | 178.35490 | 26255 ft | 494 kts | 244° |
| 2026-05-04 19:22 | 57.12561 | 178.29959 | 26257 ft | 495 kts | 243° |
| 2026-05-04 19:22 | 57.10877 | 178.24377 | 26260 ft | 495 kts | 243° |
| 2026-05-04 19:23 | 57.09213 | 178.18878 | 26256 ft | 494 kts | 243° |
| 2026-05-04 19:23 | 57.07544 | 178.13374 | 26259 ft | 494 kts | 243° |
| 2026-05-04 19:23 | 57.05888 | 178.07928 | 26257 ft | 494 kts | 243° |
| 2026-05-04 19:23 | 57.04191 | 178.02359 | 26258 ft | 494 kts | 243° |
| 2026-05-04 19:24 | 57.02510 | 177.96854 | 26253 ft | 494 kts | 243° |
| 2026-05-04 19:24 | 57.00846 | 177.91420 | 26243 ft | 494 kts | 243° |
| 2026-05-04 19:24 | 56.99162 | 177.85930 | 26239 ft | 494 kts | 243° |
| 2026-05-04 19:24 | 56.97480 | 177.80461 | 26238 ft | 493 kts | 243° |
| 2026-05-04 19:25 | 56.95782 | 177.74954 | 26235 ft | 494 kts | 243° |
| 2026-05-04 19:25 | 56.94111 | 177.69544 | 26231 ft | 494 kts | 243° |
| 2026-05-04 19:25 | 56.92410 | 177.64053 | 26232 ft | 494 kts | 243° |
| 2026-05-04 19:25 | 56.90703 | 177.58554 | 26239 ft | 494 kts | 243° |
| 2026-05-04 19:26 | 56.89018 | 177.53139 | 26228 ft | 494 kts | 243° |
| 2026-05-04 19:26 | 56.87314 | 177.47675 | 26232 ft | 494 kts | 243° |
| 2026-05-04 19:26 | 56.85597 | 177.42181 | 26228 ft | 494 kts | 243° |
| 2026-05-04 19:26 | 56.83893 | 177.36742 | 26229 ft | 494 kts | 243° |
| 2026-05-04 19:27 | 56.82187 | 177.31316 | 26231 ft | 495 kts | 242° |
| 2026-05-04 19:27 | 56.80443 | 177.25804 | 26229 ft | 495 kts | 242° |
| 2026-05-04 19:27 | 56.78743 | 177.20445 | 26234 ft | 495 kts | 242° |
| 2026-05-04 19:27 | 56.77015 | 177.15012 | 26227 ft | 495 kts | 242° |
| 2026-05-04 19:28 | 56.75287 | 177.09587 | 26232 ft | 495 kts | 242° |
| 2026-05-04 19:28 | 56.73552 | 177.04153 | 26236 ft | 496 kts | 242° |
| 2026-05-04 19:28 | 56.71820 | 176.98743 | 26230 ft | 496 kts | 242° |
| 2026-05-04 19:28 | 56.70077 | 176.93308 | 26234 ft | 496 kts | 242° |
| 2026-05-04 19:29 | 56.68326 | 176.87860 | 26227 ft | 496 kts | 242° |
| 2026-05-04 19:29 | 56.66592 | 176.82480 | 26233 ft | 496 kts | 242° |
| 2026-05-04 19:29 | 56.64850 | 176.77086 | 26230 ft | 496 kts | 242° |
| 2026-05-04 19:29 | 56.63114 | 176.71722 | 26233 ft | 496 kts | 242° |
| 2026-05-04 19:30 | 56.61346 | 176.66270 | 26234 ft | 496 kts | 242° |
| 2026-05-04 19:30 | 56.59605 | 176.60918 | 26232 ft | 495 kts | 242° |
| 2026-05-04 19:30 | 56.57864 | 176.55572 | 26234 ft | 496 kts | 242° |
| 2026-05-04 19:30 | 56.56099 | 176.50168 | 26234 ft | 495 kts | 242° |
| 2026-05-04 19:31 | 56.54342 | 176.44801 | 26233 ft | 495 kts | 242° |
| 2026-05-04 19:31 | 56.52582 | 176.39435 | 26235 ft | 495 kts | 242° |
| 2026-05-04 19:31 | 56.50834 | 176.34119 | 26233 ft | 495 kts | 241° |
| 2026-05-04 19:31 | 56.49058 | 176.28729 | 26234 ft | 496 kts | 241° |
| 2026-05-04 19:32 | 56.47291 | 176.23379 | 26233 ft | 496 kts | 241° |
| 2026-05-04 19:32 | 56.45534 | 176.18069 | 26236 ft | 497 kts | 241° |
| 2026-05-04 19:32 | 56.43761 | 176.12724 | 26237 ft | 497 kts | 241° |
| 2026-05-04 19:32 | 56.41971 | 176.07342 | 26235 ft | 497 kts | 241° |
| 2026-05-04 19:33 | 56.40180 | 176.01965 | 26231 ft | 497 kts | 241° |
| 2026-05-04 19:33 | 56.38413 | 175.96677 | 26223 ft | 496 kts | 241° |
| 2026-05-04 19:33 | 56.36622 | 175.91325 | 26224 ft | 497 kts | 240° |
| 2026-05-04 19:33 | 56.34849 | 175.86040 | 26216 ft | 496 kts | 240° |
| 2026-05-04 19:34 | 56.33049 | 175.80685 | 26214 ft | 496 kts | 240° |
| 2026-05-04 19:34 | 56.31256 | 175.75365 | 26216 ft | 496 kts | 241° |
| 2026-05-04 19:34 | 56.29480 | 175.70103 | 26218 ft | 496 kts | 240° |
| 2026-05-04 19:34 | 56.27689 | 175.64812 | 26216 ft | 496 kts | 240° |
| 2026-05-04 19:35 | 56.25890 | 175.59506 | 26217 ft | 497 kts | 240° |
| 2026-05-04 19:35 | 56.24104 | 175.54253 | 26216 ft | 496 kts | 240° |
| 2026-05-04 19:35 | 56.22308 | 175.48981 | 26218 ft | 496 kts | 240° |
| 2026-05-04 19:35 | 56.20505 | 175.43700 | 26219 ft | 496 kts | 240° |
| 2026-05-04 19:36 | 56.18676 | 175.38353 | 26218 ft | 496 kts | 240° |
| 2026-05-04 19:36 | 56.16892 | 175.33151 | 26220 ft | 496 kts | 240° |
| 2026-05-04 19:36 | 56.15076 | 175.27867 | 26219 ft | 496 kts | 240° |
| 2026-05-04 19:36 | 56.13257 | 175.22584 | 26218 ft | 496 kts | 240° |
| 2026-05-04 19:37 | 56.11449 | 175.17345 | 26218 ft | 496 kts | 240° |
| 2026-05-04 19:37 | 56.09648 | 175.12138 | 26218 ft | 496 kts | 240° |
| 2026-05-04 19:37 | 56.07820 | 175.06863 | 26219 ft | 496 kts | 240° |
| 2026-05-04 19:37 | 56.05996 | 175.01614 | 26219 ft | 495 kts | 240° |
| 2026-05-04 19:38 | 56.04170 | 174.96370 | 26218 ft | 495 kts | 239° |
| 2026-05-04 19:38 | 56.02350 | 174.91153 | 26214 ft | 495 kts | 239° |
| 2026-05-04 19:38 | 56.00527 | 174.85939 | 26213 ft | 495 kts | 239° |
| 2026-05-04 19:38 | 55.98714 | 174.80763 | 26202 ft | 495 kts | 240° |
| 2026-05-04 19:39 | 55.96872 | 174.75517 | 26206 ft | 495 kts | 239° |
| 2026-05-04 19:39 | 55.95040 | 174.70311 | 26203 ft | 495 kts | 239° |
| 2026-05-04 19:39 | 55.93218 | 174.65146 | 26208 ft | 495 kts | 239° |
| 2026-05-04 19:39 | 55.91385 | 174.59958 | 26206 ft | 495 kts | 239° |
| 2026-05-04 19:40 | 55.89560 | 174.54805 | 26204 ft | 494 kts | 239° |
| 2026-05-04 19:40 | 55.87700 | 174.49564 | 26199 ft | 495 kts | 239° |
| 2026-05-04 19:40 | 55.85882 | 174.44453 | 26194 ft | 495 kts | 239° |
| 2026-05-04 19:40 | 55.84021 | 174.39233 | 26194 ft | 495 kts | 239° |
| 2026-05-04 19:41 | 55.82199 | 174.34131 | 26192 ft | 494 kts | 239° |
| 2026-05-04 19:41 | 55.80353 | 174.28973 | 26193 ft | 495 kts | 239° |
| 2026-05-04 19:41 | 55.78495 | 174.23793 | 26190 ft | 495 kts | 239° |
| 2026-05-04 19:41 | 55.76627 | 174.18599 | 26189 ft | 495 kts | 239° |
| 2026-05-04 19:42 | 55.74778 | 174.13464 | 26190 ft | 495 kts | 239° |
| 2026-05-04 19:42 | 55.72943 | 174.08382 | 26191 ft | 495 kts | 238° |
| 2026-05-04 19:42 | 55.71084 | 174.03241 | 26189 ft | 495 kts | 238° |
| 2026-05-04 19:42 | 55.69212 | 173.98079 | 26184 ft | 494 kts | 238° |
| 2026-05-04 19:43 | 55.67359 | 173.92978 | 26184 ft | 494 kts | 238° |
| 2026-05-04 19:43 | 55.65500 | 173.87871 | 26187 ft | 494 kts | 238° |
| 2026-05-04 19:43 | 55.63625 | 173.82729 | 26182 ft | 494 kts | 239° |
| 2026-05-04 19:43 | 55.61762 | 173.77635 | 26188 ft | 494 kts | 238° |
| 2026-05-04 19:44 | 55.59891 | 173.72528 | 26186 ft | 494 kts | 238° |
| 2026-05-04 19:44 | 55.58013 | 173.67410 | 26179 ft | 494 kts | 238° |
| 2026-05-04 19:44 | 55.56152 | 173.62350 | 26181 ft | 495 kts | 238° |
| 2026-05-04 19:44 | 55.54272 | 173.57250 | 26179 ft | 495 kts | 238° |
| 2026-05-04 19:45 | 55.52390 | 173.52156 | 26186 ft | 494 kts | 238° |
| 2026-05-04 19:45 | 55.50521 | 173.47107 | 26184 ft | 495 kts | 238° |
| 2026-05-04 19:45 | 55.48626 | 173.41997 | 26185 ft | 495 kts | 238° |
| 2026-05-04 19:45 | 55.46758 | 173.36971 | 26186 ft | 495 kts | 238° |
| 2026-05-04 19:46 | 55.44870 | 173.31902 | 26185 ft | 494 kts | 237° |
| 2026-05-04 19:46 | 55.42979 | 173.26836 | 26188 ft | 494 kts | 238° |
| 2026-05-04 19:46 | 55.41084 | 173.21770 | 26186 ft | 494 kts | 237° |
| 2026-05-04 19:46 | 55.39189 | 173.16711 | 26184 ft | 494 kts | 237° |
| 2026-05-04 19:47 | 55.37310 | 173.11708 | 26180 ft | 493 kts | 237° |
| 2026-05-04 19:47 | 55.35412 | 173.06663 | 26178 ft | 493 kts | 237° |
| 2026-05-04 19:47 | 55.33527 | 173.01666 | 26178 ft | 493 kts | 237° |
| 2026-05-04 19:47 | 55.31610 | 172.96591 | 26176 ft | 494 kts | 237° |
| 2026-05-04 19:48 | 55.29721 | 172.91602 | 26176 ft | 494 kts | 237° |
| 2026-05-04 19:48 | 55.27812 | 172.86571 | 26177 ft | 494 kts | 237° |
| 2026-05-04 19:48 | 55.25903 | 172.81549 | 26172 ft | 495 kts | 237° |
| 2026-05-04 19:48 | 55.23983 | 172.76509 | 26172 ft | 495 kts | 237° |
| 2026-05-04 19:49 | 55.22089 | 172.71547 | 26172 ft | 494 kts | 237° |
| 2026-05-04 19:49 | 55.20168 | 172.66524 | 26174 ft | 493 kts | 237° |
| 2026-05-04 19:49 | 55.18273 | 172.61580 | 26164 ft | 493 kts | 237° |
| 2026-05-04 19:49 | 55.16346 | 172.56563 | 26167 ft | 493 kts | 237° |
| 2026-05-04 19:50 | 55.14449 | 172.51633 | 26169 ft | 493 kts | 237° |
| 2026-05-04 19:50 | 55.12534 | 172.46668 | 26167 ft | 493 kts | 237° |
| 2026-05-04 19:50 | 55.10616 | 172.41701 | 26162 ft | 493 kts | 237° |
| 2026-05-04 19:50 | 55.08698 | 172.36748 | 26161 ft | 493 kts | 237° |
| 2026-05-04 19:51 | 55.06787 | 172.31821 | 26160 ft | 493 kts | 236° |
| 2026-05-04 19:51 | 55.04865 | 172.26878 | 26163 ft | 493 kts | 236° |
| 2026-05-04 19:51 | 55.02933 | 172.21916 | 26159 ft | 493 kts | 236° |
| 2026-05-04 19:51 | 55.01006 | 172.16980 | 26156 ft | 493 kts | 236° |
| 2026-05-04 19:52 | 54.99083 | 172.12061 | 26160 ft | 493 kts | 236° |
| 2026-05-04 19:52 | 54.97132 | 172.07080 | 26150 ft | 494 kts | 236° |
| 2026-05-04 19:52 | 54.95217 | 172.02205 | 26151 ft | 494 kts | 236° |
| 2026-05-04 19:52 | 54.93208 | 171.97340 | 26153 ft | 494 kts | 233° |
| 2026-05-04 19:53 | 54.91060 | 171.92686 | 26149 ft | 494 kts | 232° |
| 2026-05-04 19:53 | 54.88889 | 171.88057 | 26148 ft | 493 kts | 232° |
| 2026-05-04 19:53 | 54.86709 | 171.83426 | 26144 ft | 494 kts | 232° |
| 2026-05-04 19:53 | 54.84548 | 171.78850 | 26147 ft | 493 kts | 231° |
| 2026-05-04 19:54 | 54.82368 | 171.74246 | 26137 ft | 494 kts | 232° |
| 2026-05-04 19:54 | 54.80178 | 171.69632 | 26140 ft | 493 kts | 231° |
| 2026-05-04 19:54 | 54.77999 | 171.65051 | 26142 ft | 493 kts | 232° |
| 2026-05-04 19:54 | 54.75839 | 171.60521 | 26138 ft | 493 kts | 232° |
| 2026-05-04 19:55 | 54.73643 | 171.55922 | 26138 ft | 494 kts | 232° |
| 2026-05-04 19:55 | 54.71437 | 171.51314 | 26135 ft | 493 kts | 231° |
| 2026-05-04 19:55 | 54.69273 | 171.46802 | 26143 ft | 493 kts | 232° |
| 2026-05-04 19:55 | 54.67070 | 171.42217 | 26143 ft | 493 kts | 231° |
| 2026-05-04 19:56 | 54.64888 | 171.37686 | 26138 ft | 493 kts | 232° |
| 2026-05-04 19:56 | 54.62694 | 171.33136 | 26139 ft | 493 kts | 231° |
| 2026-05-04 19:56 | 54.60501 | 171.28598 | 26140 ft | 494 kts | 231° |
| 2026-05-04 19:56 | 54.58312 | 171.24078 | 26134 ft | 493 kts | 231° |
| 2026-05-04 19:57 | 54.56116 | 171.19550 | 26128 ft | 493 kts | 231° |
| 2026-05-04 19:57 | 54.53915 | 171.15021 | 26136 ft | 492 kts | 231° |
| 2026-05-04 19:57 | 54.51689 | 171.10451 | 26134 ft | 492 kts | 231° |
| 2026-05-04 19:57 | 54.49517 | 171.05997 | 26129 ft | 492 kts | 231° |
| 2026-05-04 19:58 | 54.47290 | 171.01439 | 26133 ft | 493 kts | 231° |
| 2026-05-04 19:58 | 54.45094 | 170.96954 | 26123 ft | 493 kts | 231° |
| 2026-05-04 19:58 | 54.42892 | 170.92464 | 26130 ft | 493 kts | 231° |
| 2026-05-04 19:58 | 54.40695 | 170.87993 | 26122 ft | 493 kts | 231° |
| 2026-05-04 19:59 | 54.38474 | 170.83482 | 26122 ft | 493 kts | 231° |
| 2026-05-04 19:59 | 54.36269 | 170.79011 | 26118 ft | 493 kts | 231° |
| 2026-05-04 19:59 | 54.34038 | 170.74497 | 26117 ft | 494 kts | 231° |
| 2026-05-04 19:59 | 54.31824 | 170.70023 | 26110 ft | 493 kts | 231° |
| 2026-05-04 20:00 | 54.29591 | 170.65520 | 26116 ft | 494 kts | 231° |
| 2026-05-04 20:00 | 54.27383 | 170.61076 | 26117 ft | 493 kts | 231° |
| 2026-05-04 20:00 | 54.25164 | 170.56618 | 26107 ft | 492 kts | 231° |
| 2026-05-04 20:00 | 54.22923 | 170.52124 | 26106 ft | 493 kts | 231° |
| 2026-05-04 20:01 | 54.20715 | 170.47704 | 26108 ft | 492 kts | 231° |
| 2026-05-04 20:01 | 54.18479 | 170.43236 | 26101 ft | 491 kts | 231° |
| 2026-05-04 20:01 | 54.16265 | 170.38820 | 26100 ft | 491 kts | 231° |
| 2026-05-04 20:01 | 54.14065 | 170.34439 | 26106 ft | 491 kts | 230° |
| 2026-05-04 20:02 | 54.11837 | 170.30009 | 26095 ft | 492 kts | 230° |
| 2026-05-04 20:02 | 54.09600 | 170.25574 | 26099 ft | 492 kts | 230° |
| 2026-05-04 20:02 | 54.07350 | 170.21117 | 26102 ft | 493 kts | 230° |
| 2026-05-04 20:02 | 54.05119 | 170.16707 | 26094 ft | 492 kts | 230° |
| 2026-05-04 20:03 | 54.02897 | 170.12323 | 26091 ft | 492 kts | 230° |
| 2026-05-04 20:03 | 54.00666 | 170.07928 | 26085 ft | 492 kts | 230° |
| 2026-05-04 20:03 | 53.98420 | 170.03513 | 26087 ft | 492 kts | 230° |
| 2026-05-04 20:03 | 53.96178 | 169.99112 | 26082 ft | 491 kts | 230° |
| 2026-05-04 20:04 | 53.93970 | 169.94786 | 26086 ft | 490 kts | 230° |
| 2026-05-04 20:04 | 53.91734 | 169.90413 | 26085 ft | 490 kts | 230° |
| 2026-05-04 20:04 | 53.89509 | 169.86070 | 26088 ft | 489 kts | 230° |
| 2026-05-04 20:04 | 53.87269 | 169.81705 | 26078 ft | 489 kts | 230° |
| 2026-05-04 20:05 | 53.85027 | 169.77344 | 26072 ft | 488 kts | 230° |
| 2026-05-04 20:05 | 53.82818 | 169.73053 | 26083 ft | 489 kts | 230° |
| 2026-05-04 20:05 | 53.80577 | 169.68710 | 26064 ft | 488 kts | 230° |
| 2026-05-04 20:05 | 53.78345 | 169.64392 | 26077 ft | 488 kts | 230° |
| 2026-05-04 20:06 | 53.76109 | 169.60074 | 26060 ft | 488 kts | 230° |
| 2026-05-04 20:06 | 53.73888 | 169.55791 | 26062 ft | 487 kts | 231° |
| 2026-05-04 20:06 | 53.71659 | 169.51500 | 26067 ft | 487 kts | 231° |
| 2026-05-04 20:06 | 53.69415 | 169.47188 | 26068 ft | 487 kts | 231° |
| 2026-05-04 20:07 | 53.67196 | 169.42932 | 26067 ft | 487 kts | 231° |
| 2026-05-04 20:07 | 53.64943 | 169.38617 | 26058 ft | 485 kts | 231° |
| 2026-05-04 20:07 | 53.62819 | 169.34267 | 26065 ft | 485 kts | 236° |
| 2026-05-04 20:07 | 53.61064 | 169.29459 | 26060 ft | 482 kts | 243° |
| 2026-05-04 20:08 | 53.59483 | 169.24471 | 26059 ft | 481 kts | 243° |
| 2026-05-04 20:08 | 53.57909 | 169.19475 | 26044 ft | 480 kts | 244° |
| 2026-05-04 20:08 | 53.56340 | 169.14520 | 26061 ft | 478 kts | 243° |
| 2026-05-04 20:08 | 53.54772 | 169.09593 | 26056 ft | 478 kts | 243° |
| 2026-05-04 20:09 | 53.53222 | 169.04742 | 26055 ft | 478 kts | 243° |
| 2026-05-04 20:09 | 53.51635 | 168.99799 | 26048 ft | 479 kts | 243° |
| 2026-05-04 20:09 | 53.50048 | 168.94867 | 26041 ft | 479 kts | 243° |
| 2026-05-04 20:09 | 53.48457 | 168.89938 | 26048 ft | 478 kts | 243° |
| 2026-05-04 20:10 | 53.46880 | 168.85065 | 26043 ft | 477 kts | 243° |
| 2026-05-04 20:10 | 53.45299 | 168.80191 | 26045 ft | 477 kts | 244° |
| 2026-05-04 20:10 | 53.43718 | 168.75328 | 26044 ft | 476 kts | 244° |
| 2026-05-04 20:10 | 53.42120 | 168.70425 | 26040 ft | 477 kts | 244° |
| 2026-05-04 20:11 | 53.40517 | 168.65518 | 26046 ft | 476 kts | 244° |
| 2026-05-04 20:11 | 53.38935 | 168.60686 | 26040 ft | 474 kts | 244° |
| 2026-05-04 20:11 | 53.37356 | 168.55870 | 26038 ft | 475 kts | 244° |
| 2026-05-04 20:11 | 53.35756 | 168.51004 | 26034 ft | 473 kts | 244° |
| 2026-05-04 20:12 | 53.34176 | 168.46207 | 26037 ft | 474 kts | 244° |
| 2026-05-04 20:12 | 53.32565 | 168.41322 | 26032 ft | 473 kts | 244° |
| 2026-05-04 20:12 | 53.30990 | 168.36560 | 26029 ft | 476 kts | 244° |
| 2026-05-04 20:12 | 53.29386 | 168.31723 | 26036 ft | 473 kts | 243° |
| 2026-05-04 20:13 | 53.27788 | 168.26929 | 26036 ft | 471 kts | 243° |
| 2026-05-04 20:13 | 53.26179 | 168.22105 | 26037 ft | 476 kts | 244° |
| 2026-05-04 20:13 | 53.24587 | 168.17345 | 26028 ft | 472 kts | 244° |
| 2026-05-04 20:13 | 53.22978 | 168.12544 | 26034 ft | 472 kts | 243° |
| 2026-05-04 20:14 | 53.21359 | 168.07721 | 26031 ft | 472 kts | 243° |
| 2026-05-04 20:14 | 53.19770 | 168.02997 | 26032 ft | 471 kts | 243° |
| 2026-05-04 20:14 | 53.18156 | 167.98210 | 26030 ft | 470 kts | 244° |
| 2026-05-04 20:14 | 53.16572 | 167.93518 | 26024 ft | 468 kts | 243° |
| 2026-05-04 20:15 | 53.14970 | 167.88782 | 26034 ft | 470 kts | 244° |
| 2026-05-04 20:15 | 53.13356 | 167.84023 | 26029 ft | 469 kts | 244° |
| 2026-05-04 20:15 | 53.11762 | 167.79326 | 26022 ft | 469 kts | 244° |
| 2026-05-04 20:15 | 53.10142 | 167.74568 | 26023 ft | 469 kts | 244° |
| 2026-05-04 20:16 | 53.08542 | 167.69871 | 26022 ft | 469 kts | 244° |
| 2026-05-04 20:16 | 53.06914 | 167.65106 | 26014 ft | 471 kts | 244° |
| 2026-05-04 20:16 | 53.05303 | 167.60399 | 26017 ft | 467 kts | 244° |
| 2026-05-04 20:16 | 53.03717 | 167.55774 | 26018 ft | 468 kts | 244° |
| 2026-05-04 20:17 | 53.02081 | 167.51010 | 26018 ft | 471 kts | 244° |
| 2026-05-04 20:17 | 53.00462 | 167.46306 | 26008 ft | 471 kts | 244° |
| 2026-05-04 20:17 | 52.98831 | 167.41577 | 26009 ft | 469 kts | 245° |
| 2026-05-04 20:17 | 52.97216 | 167.36900 | 26010 ft | 468 kts | 245° |
| 2026-05-04 20:18 | 52.95604 | 167.32243 | 26014 ft | 469 kts | 244° |
| 2026-05-04 20:18 | 52.93965 | 167.27515 | 26017 ft | 472 kts | 244° |
| 2026-05-04 20:18 | 52.92347 | 167.22858 | 26023 ft | 470 kts | 244° |
| 2026-05-04 20:18 | 52.90709 | 167.18152 | 26005 ft | 468 kts | 244° |
| 2026-05-04 20:19 | 52.89088 | 167.13504 | 26002 ft | 468 kts | 244° |
| 2026-05-04 20:19 | 52.87454 | 167.08829 | 26007 ft | 470 kts | 244° |
| 2026-05-04 20:19 | 52.85806 | 167.04117 | 25999 ft | 472 kts | 244° |
| 2026-05-04 20:19 | 52.84164 | 166.99440 | 26000 ft | 470 kts | 244° |
| 2026-05-04 20:20 | 52.82525 | 166.94771 | 26004 ft | 471 kts | 244° |
| 2026-05-04 20:20 | 52.80874 | 166.90085 | 25995 ft | 468 kts | 244° |
| 2026-05-04 20:20 | 52.79223 | 166.85403 | 25995 ft | 468 kts | 244° |
| 2026-05-04 20:20 | 52.77612 | 166.80846 | 25993 ft | 466 kts | 244° |
| 2026-05-04 20:21 | 52.75966 | 166.76193 | 25994 ft | 468 kts | 244° |
| 2026-05-04 20:21 | 52.74313 | 166.71533 | 25989 ft | 468 kts | 244° |
| 2026-05-04 20:21 | 52.71031 | 166.62305 | 25988 ft | 467 kts | 244° |
| 2026-05-04 20:22 | 52.69383 | 166.57681 | 25983 ft | 468 kts | 244° |
| 2026-05-04 20:22 | 52.67746 | 166.53101 | 25982 ft | 466 kts | 244° |
| 2026-05-04 20:22 | 52.66098 | 166.48496 | 25977 ft | 467 kts | 244° |
| 2026-05-04 20:22 | 52.64447 | 166.43893 | 25979 ft | 465 kts | 244° |
| 2026-05-04 20:23 | 52.62814 | 166.39348 | 25976 ft | 465 kts | 244° |
| 2026-05-04 20:23 | 52.61152 | 166.34729 | 25976 ft | 467 kts | 243° |
| 2026-05-04 20:23 | 52.59491 | 166.30119 | 25979 ft | 467 kts | 243° |
| 2026-05-04 20:23 | 52.57861 | 166.25610 | 25978 ft | 464 kts | 243° |
| 2026-05-04 20:24 | 52.56215 | 166.21060 | 25977 ft | 464 kts | 243° |
| 2026-05-04 20:24 | 52.54566 | 166.16511 | 25978 ft | 465 kts | 243° |
| 2026-05-04 20:24 | 52.52909 | 166.11948 | 25976 ft | 465 kts | 243° |
| 2026-05-04 20:24 | 52.51235 | 166.07349 | 25975 ft | 465 kts | 243° |
| 2026-05-04 20:25 | 52.49578 | 166.02802 | 25977 ft | 466 kts | 242° |
| 2026-05-04 20:25 | 52.47924 | 165.98271 | 25974 ft | 465 kts | 243° |
| 2026-05-04 20:25 | 52.46250 | 165.93697 | 25971 ft | 463 kts | 243° |
| 2026-05-04 20:25 | 52.44603 | 165.89204 | 25970 ft | 463 kts | 242° |
| 2026-05-04 20:26 | 52.42928 | 165.84641 | 25968 ft | 464 kts | 242° |
| 2026-05-04 20:26 | 52.41277 | 165.80151 | 25962 ft | 465 kts | 243° |
| 2026-05-04 20:26 | 52.39594 | 165.75583 | 25958 ft | 463 kts | 242° |
| 2026-05-04 20:26 | 52.37950 | 165.71130 | 25957 ft | 460 kts | 242° |
| 2026-05-04 20:27 | 52.36293 | 165.66649 | 25956 ft | 464 kts | 242° |
| 2026-05-04 20:27 | 52.34617 | 165.62123 | 25953 ft | 463 kts | 242° |
| 2026-05-04 20:27 | 52.32948 | 165.57626 | 25947 ft | 459 kts | 242° |
| 2026-05-04 20:27 | 52.31284 | 165.53152 | 25949 ft | 458 kts | 242° |
| 2026-05-04 20:28 | 52.29642 | 165.48741 | 25947 ft | 461 kts | 242° |
| 2026-05-04 20:28 | 52.27964 | 165.44244 | 25942 ft | 458 kts | 242° |
| 2026-05-04 20:28 | 52.26310 | 165.39818 | 25942 ft | 459 kts | 242° |
| 2026-05-04 20:28 | 52.24650 | 165.35384 | 25936 ft | 459 kts | 242° |
| 2026-05-04 20:29 | 52.22988 | 165.30951 | 25947 ft | 460 kts | 240° |
| 2026-05-04 20:29 | 52.21306 | 165.26474 | 25942 ft | 457 kts | 240° |
| 2026-05-04 20:29 | 52.19651 | 165.22076 | 25941 ft | 459 kts | 241° |
| 2026-05-04 20:29 | 52.17976 | 165.17635 | 25934 ft | 458 kts | 240° |
| 2026-05-04 20:30 | 52.16314 | 165.13232 | 25933 ft | 459 kts | 240° |
| 2026-05-04 20:30 | 52.14650 | 165.08833 | 25926 ft | 460 kts | 240° |
| 2026-05-04 20:30 | 52.12960 | 165.04375 | 25932 ft | 459 kts | 240° |
| 2026-05-04 20:30 | 52.11303 | 165.00011 | 25928 ft | 456 kts | 240° |
| 2026-05-04 20:31 | 52.09639 | 164.95634 | 25925 ft | 458 kts | 240° |
| 2026-05-04 20:31 | 52.07945 | 164.91188 | 25919 ft | 458 kts | 240° |
| 2026-05-04 20:31 | 52.06285 | 164.86836 | 25919 ft | 457 kts | 240° |
| 2026-05-04 20:31 | 52.04602 | 164.82436 | 25914 ft | 456 kts | 240° |
| 2026-05-04 20:32 | 52.02927 | 164.78061 | 25912 ft | 456 kts | 240° |
| 2026-05-04 20:32 | 52.01261 | 164.73717 | 25915 ft | 455 kts | 240° |
| 2026-05-04 20:32 | 51.99578 | 164.69338 | 25911 ft | 456 kts | 240° |
| 2026-05-04 20:32 | 51.97924 | 164.65039 | 25912 ft | 454 kts | 240° |
| 2026-05-04 20:33 | 51.96251 | 164.60700 | 25912 ft | 456 kts | 240° |
| 2026-05-04 20:33 | 51.94562 | 164.56326 | 25894 ft | 455 kts | 240° |
| 2026-05-04 20:33 | 51.92871 | 164.51955 | 25902 ft | 453 kts | 240° |
| 2026-05-04 20:33 | 51.91217 | 164.47688 | 25890 ft | 452 kts | 239° |
| 2026-05-04 20:34 | 51.89539 | 164.43362 | 25899 ft | 453 kts | 240° |
| 2026-05-04 20:34 | 51.87863 | 164.39052 | 25904 ft | 454 kts | 239° |
| 2026-05-04 20:34 | 51.86180 | 164.34731 | 25891 ft | 451 kts | 239° |
| 2026-05-04 20:34 | 51.84507 | 164.30444 | 25904 ft | 450 kts | 239° |
| 2026-05-04 20:35 | 51.82860 | 164.26228 | 25892 ft | 450 kts | 239° |
| 2026-05-04 20:35 | 51.81175 | 164.21924 | 25884 ft | 450 kts | 238° |
| 2026-05-04 20:35 | 51.79489 | 164.17624 | 25893 ft | 452 kts | 238° |
| 2026-05-04 20:35 | 51.77826 | 164.13388 | 25883 ft | 451 kts | 239° |
| 2026-05-04 20:36 | 51.76148 | 164.09123 | 25898 ft | 449 kts | 239° |
| 2026-05-04 20:36 | 51.74461 | 164.04842 | 25889 ft | 452 kts | 238° |
| 2026-05-04 20:36 | 51.72786 | 164.00597 | 25889 ft | 450 kts | 238° |
| 2026-05-04 20:36 | 51.71109 | 163.96356 | 25883 ft | 449 kts | 239° |
| 2026-05-04 20:37 | 51.69416 | 163.92081 | 25874 ft | 447 kts | 238° |
| 2026-05-04 20:37 | 51.67735 | 163.87845 | 25873 ft | 447 kts | 239° |
| 2026-05-04 20:37 | 51.66068 | 163.83647 | 25866 ft | 451 kts | 239° |
| 2026-05-04 20:37 | 51.64388 | 163.79425 | 25865 ft | 448 kts | 238° |
| 2026-05-04 20:38 | 51.62722 | 163.75247 | 25859 ft | 445 kts | 238° |
| 2026-05-04 20:38 | 51.61041 | 163.71036 | 25870 ft | 448 kts | 239° |
| 2026-05-04 20:38 | 51.59352 | 163.66814 | 25861 ft | 447 kts | 238° |
| 2026-05-04 20:38 | 51.57693 | 163.62672 | 25860 ft | 444 kts | 239° |
| 2026-05-04 20:39 | 51.56016 | 163.58489 | 25856 ft | 448 kts | 238° |
| 2026-05-04 20:39 | 51.54337 | 163.54312 | 25858 ft | 447 kts | 238° |
| 2026-05-04 20:39 | 51.52657 | 163.50137 | 25850 ft | 447 kts | 239° |
| 2026-05-04 20:39 | 51.50966 | 163.45941 | 25859 ft | 446 kts | 238° |
| 2026-05-04 20:40 | 51.49291 | 163.41792 | 25845 ft | 443 kts | 238° |
| 2026-05-04 20:40 | 51.47630 | 163.37686 | 25844 ft | 445 kts | 238° |
| 2026-05-04 20:40 | 51.45923 | 163.33472 | 25844 ft | 448 kts | 238° |
| 2026-05-04 20:40 | 51.44237 | 163.29317 | 25856 ft | 446 kts | 238° |
| 2026-05-04 20:41 | 51.42554 | 163.25172 | 25836 ft | 443 kts | 238° |
| 2026-05-04 20:41 | 51.40870 | 163.21037 | 25845 ft | 445 kts | 238° |
| 2026-05-04 20:41 | 51.39187 | 163.16907 | 25839 ft | 448 kts | 237° |
| 2026-05-04 20:41 | 51.37471 | 163.12705 | 25828 ft | 445 kts | 238° |
| 2026-05-04 20:42 | 51.35801 | 163.08623 | 25831 ft | 441 kts | 237° |
| 2026-05-04 20:42 | 51.34119 | 163.04517 | 25836 ft | 447 kts | 238° |
| 2026-05-04 20:42 | 51.32408 | 163.00345 | 25810 ft | 447 kts | 238° |
| 2026-05-04 20:42 | 51.30705 | 162.96201 | 25839 ft | 444 kts | 238° |
| 2026-05-04 20:43 | 51.29015 | 162.92096 | 25827 ft | 442 kts | 237° |
| 2026-05-04 20:43 | 51.27331 | 162.88010 | 25820 ft | 442 kts | 238° |
| 2026-05-04 20:43 | 51.25638 | 162.83908 | 25840 ft | 443 kts | 237° |
| 2026-05-04 20:43 | 51.23931 | 162.79781 | 25810 ft | 444 kts | 237° |
| 2026-05-04 20:44 | 51.22235 | 162.75687 | 25810 ft | 443 kts | 237° |
| 2026-05-04 20:44 | 51.20539 | 162.71599 | 25805 ft | 443 kts | 238° |
| 2026-05-04 20:44 | 51.18840 | 162.67511 | 25810 ft | 443 kts | 237° |
| 2026-05-04 20:44 | 51.17158 | 162.63469 | 25805 ft | 440 kts | 237° |
| 2026-05-04 20:45 | 51.15472 | 162.59425 | 25799 ft | 441 kts | 237° |
| 2026-05-04 20:45 | 51.13756 | 162.55313 | 25792 ft | 443 kts | 237° |
| 2026-05-04 20:45 | 51.12059 | 162.51254 | 25805 ft | 441 kts | 237° |
| 2026-05-04 20:45 | 51.10370 | 162.47220 | 25795 ft | 440 kts | 237° |
| 2026-05-04 20:46 | 51.08673 | 162.43176 | 25801 ft | 441 kts | 237° |
| 2026-05-04 20:46 | 51.06963 | 162.39104 | 25776 ft | 444 kts | 236° |
| 2026-05-04 20:46 | 51.05260 | 162.35057 | 25801 ft | 439 kts | 237° |
| 2026-05-04 20:46 | 51.03589 | 162.31090 | 25795 ft | 438 kts | 236° |
| 2026-05-04 20:47 | 51.01894 | 162.27075 | 25790 ft | 442 kts | 236° |
| 2026-05-04 20:47 | 51.00171 | 162.22998 | 25796 ft | 441 kts | 236° |
| 2026-05-04 20:47 | 50.98471 | 162.18982 | 25775 ft | 440 kts | 236° |
| 2026-05-04 20:47 | 50.96772 | 162.14977 | 25779 ft | 439 kts | 236° |
| 2026-05-04 20:48 | 50.95074 | 162.10977 | 25785 ft | 437 kts | 236° |
| 2026-05-04 20:48 | 50.93369 | 162.06969 | 25781 ft | 441 kts | 236° |
| 2026-05-04 20:48 | 50.91653 | 162.02940 | 25773 ft | 441 kts | 236° |
| 2026-05-04 20:48 | 50.89969 | 161.98994 | 25760 ft | 436 kts | 236° |
| 2026-05-04 20:49 | 50.88260 | 161.94994 | 25757 ft | 436 kts | 236° |
| 2026-05-04 20:49 | 50.86578 | 161.91061 | 25778 ft | 438 kts | 236° |
| 2026-05-04 20:49 | 50.84861 | 161.87054 | 25766 ft | 438 kts | 236° |
| 2026-05-04 20:49 | 50.83156 | 161.83084 | 25765 ft | 436 kts | 235° |
| 2026-05-04 20:50 | 50.81470 | 161.79160 | 25745 ft | 435 kts | 235° |
| 2026-05-04 20:50 | 50.79759 | 161.75188 | 25764 ft | 435 kts | 235° |
| 2026-05-04 20:50 | 50.78064 | 161.71256 | 25744 ft | 435 kts | 235° |
| 2026-05-04 20:50 | 50.76383 | 161.67363 | 25754 ft | 434 kts | 236° |
| 2026-05-04 20:51 | 50.74677 | 161.63417 | 25762 ft | 434 kts | 235° |
| 2026-05-04 20:51 | 50.72966 | 161.59470 | 25742 ft | 436 kts | 235° |
| 2026-05-04 20:51 | 50.71264 | 161.55545 | 25736 ft | 433 kts | 236° |
| 2026-05-04 20:51 | 50.69576 | 161.51659 | 25726 ft | 433 kts | 235° |
| 2026-05-04 20:52 | 50.67871 | 161.47740 | 25752 ft | 432 kts | 235° |
| 2026-05-04 20:52 | 50.66177 | 161.43852 | 25722 ft | 432 kts | 235° |
| 2026-05-04 20:52 | 50.64477 | 161.39955 | 25738 ft | 432 kts | 235° |
| 2026-05-04 20:52 | 50.62786 | 161.36087 | 25722 ft | 433 kts | 235° |
| 2026-05-04 20:53 | 50.61092 | 161.32217 | 25714 ft | 430 kts | 234° |
| 2026-05-04 20:53 | 50.59400 | 161.28357 | 25713 ft | 430 kts | 234° |
| 2026-05-04 20:53 | 50.57690 | 161.24461 | 25729 ft | 433 kts | 234° |
| 2026-05-04 20:53 | 50.55987 | 161.20589 | 25713 ft | 432 kts | 234° |
| 2026-05-04 20:54 | 50.54297 | 161.16748 | 25711 ft | 428 kts | 234° |
| 2026-05-04 20:54 | 50.52610 | 161.12921 | 25710 ft | 431 kts | 234° |
| 2026-05-04 20:54 | 50.50889 | 161.09024 | 25708 ft | 433 kts | 234° |
| 2026-05-04 20:54 | 50.49191 | 161.05185 | 25713 ft | 430 kts | 234° |
| 2026-05-04 20:55 | 50.47495 | 161.01355 | 25696 ft | 426 kts | 234° |
| 2026-05-04 20:55 | 50.45797 | 160.97525 | 25705 ft | 428 kts | 234° |
| 2026-05-04 20:55 | 50.44096 | 160.93697 | 25722 ft | 430 kts | 235° |
| 2026-05-04 20:55 | 50.42396 | 160.89876 | 25701 ft | 429 kts | 234° |
| 2026-05-04 20:56 | 50.40703 | 160.86073 | 25698 ft | 427 kts | 234° |
| 2026-05-04 20:56 | 50.38994 | 160.82243 | 25691 ft | 428 kts | 234° |
| 2026-05-04 20:56 | 50.37290 | 160.78429 | 25698 ft | 428 kts | 234° |
| 2026-05-04 20:56 | 50.35598 | 160.74644 | 25685 ft | 427 kts | 234° |
| 2026-05-04 20:57 | 50.33890 | 160.70834 | 25688 ft | 428 kts | 234° |
| 2026-05-04 20:57 | 50.32176 | 160.67013 | 25677 ft | 429 kts | 234° |
| 2026-05-04 20:57 | 50.30478 | 160.63234 | 25663 ft | 428 kts | 234° |
| 2026-05-04 20:57 | 50.28777 | 160.59451 | 25667 ft | 425 kts | 233° |
| 2026-05-04 20:58 | 50.27081 | 160.55688 | 25675 ft | 426 kts | 234° |
| 2026-05-04 20:58 | 50.25365 | 160.51886 | 25667 ft | 428 kts | 234° |
| 2026-05-04 20:58 | 50.23671 | 160.48137 | 25650 ft | 429 kts | 234° |
| 2026-05-04 20:58 | 50.21957 | 160.44348 | 25649 ft | 427 kts | 234° |
| 2026-05-04 20:59 | 50.20238 | 160.40555 | 25658 ft | 426 kts | 233° |
| 2026-05-04 20:59 | 50.18523 | 160.36783 | 25638 ft | 428 kts | 234° |
| 2026-05-04 20:59 | 50.16808 | 160.33029 | 25630 ft | 429 kts | 233° |
| 2026-05-04 20:59 | 50.15087 | 160.29266 | 25639 ft | 425 kts | 233° |
| 2026-05-04 21:00 | 50.13387 | 160.25557 | 25633 ft | 424 kts | 233° |
| 2026-05-04 21:00 | 50.11659 | 160.21791 | 25635 ft | 427 kts | 232° |
| 2026-05-04 21:00 | 50.09935 | 160.18039 | 25637 ft | 429 kts | 233° |
| 2026-05-04 21:00 | 50.08206 | 160.14279 | 25621 ft | 427 kts | 232° |
| 2026-05-04 21:01 | 50.06484 | 160.10542 | 25607 ft | 424 kts | 233° |
| 2026-05-04 21:01 | 50.04760 | 160.06807 | 25616 ft | 427 kts | 233° |
| 2026-05-04 21:01 | 50.03037 | 160.03076 | 25601 ft | 430 kts | 232° |
| 2026-05-04 21:01 | 50.01297 | 159.99315 | 25609 ft | 425 kts | 232° |
| 2026-05-04 21:02 | 49.99591 | 159.95633 | 25596 ft | 423 kts | 232° |
| 2026-05-04 21:02 | 49.97860 | 159.91902 | 25610 ft | 425 kts | 232° |
| 2026-05-04 21:02 | 49.96138 | 159.88196 | 25594 ft | 425 kts | 232° |
| 2026-05-04 21:02 | 49.94410 | 159.84480 | 25610 ft | 426 kts | 232° |
| 2026-05-04 21:03 | 49.92687 | 159.80783 | 25597 ft | 425 kts | 232° |
| 2026-05-04 21:03 | 49.90956 | 159.77074 | 25583 ft | 422 kts | 232° |
| 2026-05-04 21:03 | 49.89245 | 159.73408 | 25583 ft | 421 kts | 232° |
| 2026-05-04 21:03 | 49.87537 | 159.69759 | 25586 ft | 424 kts | 232° |
| 2026-05-04 21:04 | 49.85803 | 159.66057 | 25579 ft | 423 kts | 232° |
| 2026-05-04 21:04 | 49.84074 | 159.62372 | 25589 ft | 421 kts | 232° |
| 2026-05-04 21:04 | 49.82375 | 159.58752 | 25563 ft | 420 kts | 232° |
| 2026-05-04 21:04 | 49.80657 | 159.55103 | 25568 ft | 424 kts | 232° |
| 2026-05-04 21:05 | 49.78912 | 159.51401 | 25579 ft | 425 kts | 233° |
| 2026-05-04 21:05 | 49.77179 | 159.47723 | 25557 ft | 424 kts | 232° |
| 2026-05-04 21:05 | 49.75449 | 159.44063 | 25556 ft | 423 kts | 232° |
| 2026-05-04 21:05 | 49.73734 | 159.40437 | 25577 ft | 422 kts | 232° |
| 2026-05-04 21:06 | 49.72081 | 159.36949 | 25557 ft | 421 kts | 233° |
| 2026-05-04 21:06 | 49.70367 | 159.33344 | 25543 ft | 421 kts | 231° |
| 2026-05-04 21:06 | 49.68608 | 159.29736 | 25549 ft | 422 kts | 231° |
| 2026-05-04 21:06 | 49.66834 | 159.26120 | 25549 ft | 421 kts | 231° |
| 2026-05-04 21:07 | 49.65046 | 159.22479 | 25552 ft | 419 kts | 231° |
| 2026-05-04 21:07 | 49.63279 | 159.18883 | 25535 ft | 422 kts | 231° |
| 2026-05-04 21:07 | 49.61514 | 159.15292 | 25515 ft | 422 kts | 231° |
| 2026-05-04 21:07 | 49.59743 | 159.11696 | 25520 ft | 422 kts | 231° |
| 2026-05-04 21:08 | 49.57973 | 159.08105 | 25514 ft | 420 kts | 231° |
| 2026-05-04 21:08 | 49.56210 | 159.04532 | 25522 ft | 419 kts | 231° |
| 2026-05-04 21:08 | 49.54436 | 159.00943 | 25512 ft | 422 kts | 231° |
| 2026-05-04 21:08 | 49.52655 | 158.97345 | 25514 ft | 421 kts | 231° |
| 2026-05-04 21:09 | 49.50878 | 158.93756 | 25508 ft | 418 kts | 231° |
| 2026-05-04 21:09 | 49.49136 | 158.90243 | 25502 ft | 419 kts | 231° |
| 2026-05-04 21:09 | 49.47364 | 158.86676 | 25486 ft | 419 kts | 231° |
| 2026-05-04 21:09 | 49.45595 | 158.83119 | 25492 ft | 417 kts | 231° |
| 2026-05-04 21:10 | 49.43858 | 158.79631 | 25482 ft | 417 kts | 231° |
| 2026-05-04 21:10 | 49.42095 | 158.76096 | 25477 ft | 419 kts | 231° |
| 2026-05-04 21:10 | 49.40309 | 158.72519 | 25460 ft | 419 kts | 231° |
| 2026-05-04 21:10 | 49.38541 | 158.68982 | 25455 ft | 417 kts | 231° |
| 2026-05-04 21:11 | 49.36785 | 158.65475 | 25438 ft | 418 kts | 231° |
| 2026-05-04 21:11 | 49.35031 | 158.61975 | 25459 ft | 416 kts | 231° |
| 2026-05-04 21:11 | 49.33258 | 158.58444 | 25432 ft | 414 kts | 231° |
| 2026-05-04 21:11 | 49.31513 | 158.54973 | 25435 ft | 414 kts | 231° |
| 2026-05-04 21:12 | 49.29760 | 158.51489 | 25431 ft | 415 kts | 231° |
| 2026-05-04 21:12 | 49.27999 | 158.47994 | 25437 ft | 416 kts | 231° |
| 2026-05-04 21:12 | 49.26241 | 158.44510 | 25427 ft | 413 kts | 231° |
| 2026-05-04 21:12 | 49.24501 | 158.41067 | 25420 ft | 413 kts | 231° |
| 2026-05-04 21:13 | 49.22727 | 158.37560 | 25412 ft | 414 kts | 231° |
| 2026-05-04 21:13 | 49.20987 | 158.34123 | 25417 ft | 411 kts | 231° |
| 2026-05-04 21:13 | 49.19232 | 158.30664 | 25417 ft | 410 kts | 231° |
| 2026-05-04 21:13 | 49.17498 | 158.27251 | 25422 ft | 411 kts | 231° |
| 2026-05-04 21:14 | 49.15734 | 158.23782 | 25402 ft | 411 kts | 231° |
| 2026-05-04 21:14 | 49.13994 | 158.20366 | 25424 ft | 418 kts | 231° |
| 2026-05-04 21:14 | 49.12198 | 158.16844 | 25734 ft | 424 kts | 231° |
| 2026-05-04 21:14 | 49.10383 | 158.13287 | 26375 ft | 422 kts | 231° |
| 2026-05-04 21:15 | 49.08614 | 158.09827 | 27178 ft | 417 kts | 230° |
| 2026-05-04 21:15 | 49.06846 | 158.06370 | 27970 ft | 412 kts | 230° |
| 2026-05-04 21:15 | 49.05100 | 158.02965 | 28643 ft | 410 kts | 230° |
| 2026-05-04 21:15 | 49.03343 | 157.99541 | 29228 ft | 408 kts | 230° |
| 2026-05-04 21:16 | 49.01607 | 157.96162 | 29348 ft | 409 kts | 230° |
| 2026-05-04 21:16 | 48.99860 | 157.92767 | 29358 ft | 405 kts | 230° |
| 2026-05-04 21:16 | 48.96437 | 157.86127 | 29355 ft | 398 kts | 230° |
| 2026-05-04 21:17 | 48.93000 | 157.79477 | 29358 ft | 404 kts | 230° |
| 2026-05-04 21:17 | 48.89547 | 157.72810 | 29357 ft | 398 kts | 230° |
| 2026-05-04 21:18 | 48.86144 | 157.66257 | 29368 ft | 397 kts | 231° |
| 2026-05-04 21:18 | 48.82733 | 157.59706 | 29360 ft | 397 kts | 230° |
| 2026-05-04 21:19 | 48.79329 | 157.53185 | 29356 ft | 396 kts | 231° |
| 2026-05-04 21:19 | 48.75904 | 157.46637 | 29352 ft | 397 kts | 230° |
| 2026-05-04 21:20 | 48.72483 | 157.40112 | 29352 ft | 394 kts | 230° |
| 2026-05-04 21:20 | 48.69098 | 157.33673 | 29340 ft | 393 kts | 229° |
| 2026-05-04 21:21 | 48.65696 | 157.27217 | 29342 ft | 394 kts | 230° |
| 2026-05-04 21:21 | 48.62289 | 157.20767 | 29341 ft | 392 kts | 229° |
| 2026-05-04 21:22 | 48.58895 | 157.14357 | 29332 ft | 391 kts | 229° |
| 2026-05-04 21:22 | 48.55499 | 157.07960 | 29325 ft | 391 kts | 230° |
| 2026-05-04 21:23 | 48.52108 | 157.01587 | 29325 ft | 392 kts | 230° |
| 2026-05-04 21:23 | 48.48698 | 156.95190 | 29321 ft | 390 kts | 230° |
| 2026-05-04 21:24 | 48.45323 | 156.88878 | 29317 ft | 388 kts | 229° |
| 2026-05-04 21:24 | 48.41922 | 156.82532 | 29310 ft | 391 kts | 230° |
| 2026-05-04 21:25 | 48.38534 | 156.76224 | 29308 ft | 389 kts | 230° |
| 2026-05-04 21:25 | 48.35117 | 156.69876 | 29300 ft | 388 kts | 230° |
| 2026-05-04 21:26 | 48.31739 | 156.63615 | 29299 ft | 389 kts | 229° |
| 2026-05-04 21:26 | 48.28344 | 156.57338 | 29288 ft | 389 kts | 229° |
| 2026-05-04 21:27 | 48.24937 | 156.51056 | 29282 ft | 388 kts | 229° |
| 2026-05-04 21:27 | 48.21564 | 156.44849 | 29279 ft | 387 kts | 230° |
| 2026-05-04 21:28 | 48.18166 | 156.38609 | 29274 ft | 387 kts | 229° |
| 2026-05-04 21:28 | 48.14760 | 156.32371 | 29280 ft | 387 kts | 228° |
| 2026-05-04 21:29 | 48.11359 | 156.26157 | 29286 ft | 386 kts | 229° |
| 2026-05-04 21:29 | 48.07985 | 156.20003 | 29277 ft | 384 kts | 229° |
| 2026-05-04 21:30 | 48.04616 | 156.13875 | 29280 ft | 386 kts | 228° |
| 2026-05-04 21:30 | 48.01208 | 156.07690 | 29271 ft | 383 kts | 229° |
| 2026-05-04 21:31 | 47.96139 | 155.98515 | 29258 ft | 383 kts | 229° |
| 2026-05-04 21:32 | 47.92770 | 155.92436 | 29245 ft | 382 kts | 229° |
| 2026-05-04 21:32 | 47.89392 | 155.86353 | 29269 ft | 382 kts | 229° |
| 2026-05-04 21:33 | 47.86028 | 155.80309 | 29285 ft | 382 kts | 229° |
| 2026-05-04 21:33 | 47.82630 | 155.74219 | 29287 ft | 382 kts | 228° |
| 2026-05-04 21:34 | 47.79254 | 155.68181 | 29288 ft | 381 kts | 228° |
| 2026-05-04 21:34 | 47.75877 | 155.62155 | 29289 ft | 382 kts | 229° |
| 2026-05-04 21:35 | 47.72496 | 155.56133 | 29283 ft | 381 kts | 227° |
| 2026-05-04 21:35 | 47.69093 | 155.50089 | 29282 ft | 380 kts | 229° |
| 2026-05-04 21:36 | 47.65718 | 155.44106 | 29283 ft | 381 kts | 228° |
| 2026-05-04 21:36 | 47.62344 | 155.38138 | 29279 ft | 379 kts | 227° |
| 2026-05-04 21:37 | 47.58951 | 155.32150 | 29292 ft | 379 kts | 226° |
| 2026-05-04 21:37 | 47.55570 | 155.26196 | 29292 ft | 378 kts | 226° |
| 2026-05-04 21:38 | 47.52199 | 155.20274 | 29297 ft | 378 kts | 227° |
| 2026-05-04 21:38 | 47.48873 | 155.14442 | 29276 ft | 377 kts | 228° |
| 2026-05-04 21:39 | 47.45477 | 155.08501 | 29289 ft | 378 kts | 227° |
| 2026-05-04 21:39 | 47.42113 | 155.02629 | 29282 ft | 377 kts | 227° |
| 2026-05-04 21:40 | 47.38736 | 154.96747 | 29280 ft | 377 kts | 227° |
| 2026-05-04 21:40 | 47.35345 | 154.90852 | 29264 ft | 376 kts | 226° |
| 2026-05-04 21:41 | 47.31998 | 154.85048 | 29285 ft | 375 kts | 227° |
| 2026-05-04 21:41 | 47.28605 | 154.79178 | 29273 ft | 375 kts | 227° |
| 2026-05-04 21:42 | 47.25235 | 154.73357 | 29287 ft | 374 kts | 227° |
| 2026-05-04 21:42 | 47.21862 | 154.67546 | 29284 ft | 376 kts | 227° |
| 2026-05-04 21:43 | 47.18486 | 154.61740 | 29282 ft | 372 kts | 227° |
| 2026-05-04 21:43 | 47.15110 | 154.55949 | 29275 ft | 374 kts | 227° |
| 2026-05-04 21:44 | 47.11765 | 154.50221 | 29283 ft | 371 kts | 227° |
| 2026-05-04 21:44 | 47.08393 | 154.44461 | 29288 ft | 372 kts | 227° |
| 2026-05-04 21:45 | 47.05035 | 154.38734 | 29282 ft | 371 kts | 227° |
| 2026-05-04 21:45 | 47.01669 | 154.33008 | 29319 ft | 368 kts | 227° |
| 2026-05-04 21:46 | 46.98343 | 154.27364 | 29318 ft | 368 kts | 227° |
| 2026-05-04 21:46 | 46.95034 | 154.21755 | 29299 ft | 366 kts | 227° |
| 2026-05-04 21:47 | 46.91709 | 154.16133 | 29308 ft | 364 kts | 227° |
| 2026-05-04 21:47 | 46.88380 | 154.10518 | 29335 ft | 368 kts | 226° |
| 2026-05-04 21:48 | 46.85064 | 154.04935 | 29328 ft | 365 kts | 226° |
| 2026-05-04 21:48 | 46.81730 | 153.99332 | 29347 ft | 364 kts | 226° |
| 2026-05-04 21:49 | 46.78416 | 153.93774 | 29341 ft | 367 kts | 226° |
| 2026-05-04 21:49 | 46.75075 | 153.88184 | 29343 ft | 367 kts | 227° |
| 2026-05-04 21:50 | 46.71720 | 153.82581 | 29341 ft | 367 kts | 226° |
| 2026-05-04 21:50 | 46.68398 | 153.77046 | 29342 ft | 366 kts | 227° |
| 2026-05-04 21:51 | 46.65039 | 153.71460 | 29342 ft | 365 kts | 226° |
| 2026-05-04 21:51 | 46.61690 | 153.65900 | 29342 ft | 369 kts | 226° |
| 2026-05-04 21:52 | 46.58336 | 153.60345 | 29345 ft | 366 kts | 226° |
| 2026-05-04 21:52 | 46.55010 | 153.54846 | 29355 ft | 366 kts | 226° |
| 2026-05-04 21:53 | 46.51633 | 153.49277 | 29349 ft | 365 kts | 227° |
| 2026-05-04 21:53 | 46.48286 | 153.43767 | 29364 ft | 367 kts | 227° |
| 2026-05-04 21:54 | 46.44921 | 153.38237 | 29354 ft | 365 kts | 227° |
| 2026-05-04 21:54 | 46.41579 | 153.32758 | 29371 ft | 366 kts | 226° |
| 2026-05-04 21:55 | 46.38224 | 153.27267 | 29374 ft | 364 kts | 226° |
| 2026-05-04 21:55 | 46.34878 | 153.21803 | 29382 ft | 362 kts | 227° |
| 2026-05-04 21:56 | 46.31552 | 153.16382 | 29382 ft | 362 kts | 227° |
| 2026-05-04 21:56 | 46.28218 | 153.10959 | 29382 ft | 363 kts | 227° |
| 2026-05-04 21:57 | 46.24892 | 153.05560 | 29378 ft | 360 kts | 227° |
| 2026-05-04 21:57 | 46.21561 | 153.00168 | 29382 ft | 363 kts | 227° |
| 2026-05-04 21:58 | 46.18209 | 152.94806 | 29382 ft | 357 kts | 227° |
| 2026-05-04 21:58 | 46.14874 | 152.89485 | 29386 ft | 362 kts | 227° |
| 2026-05-04 21:59 | 46.11525 | 152.84151 | 29408 ft | 357 kts | 227° |
| 2026-05-04 21:59 | 46.08171 | 152.78819 | 29395 ft | 363 kts | 227° |
| 2026-05-04 22:00 | 46.04799 | 152.73469 | 29403 ft | 361 kts | 226° |
| 2026-05-04 22:00 | 46.01390 | 152.68074 | 29403 ft | 364 kts | 227° |
| 2026-05-04 22:01 | 45.98009 | 152.62730 | 29410 ft | 364 kts | 227° |
| 2026-05-04 22:01 | 45.94611 | 152.57373 | 29413 ft | 364 kts | 226° |
| 2026-05-04 22:02 | 45.91180 | 152.51971 | 29403 ft | 364 kts | 227° |
| 2026-05-04 22:02 | 45.87775 | 152.46623 | 29436 ft | 367 kts | 227° |
| 2026-05-04 22:03 | 45.84344 | 152.41244 | 29447 ft | 367 kts | 227° |
| 2026-05-04 22:03 | 45.80891 | 152.35843 | 29442 ft | 368 kts | 227° |
| 2026-05-04 22:04 | 45.77438 | 152.30450 | 29469 ft | 368 kts | 226° |
| 2026-05-04 22:04 | 45.73993 | 152.25081 | 29481 ft | 370 kts | 226° |
| 2026-05-04 22:05 | 45.70547 | 152.19720 | 29481 ft | 367 kts | 226° |
| 2026-05-04 22:05 | 45.67057 | 152.14304 | 29485 ft | 370 kts | 226° |
| 2026-05-04 22:06 | 45.63553 | 152.08873 | 29490 ft | 370 kts | 226° |
| 2026-05-04 22:06 | 45.60079 | 152.03502 | 29493 ft | 369 kts | 227° |
| 2026-05-04 22:07 | 45.56587 | 151.98114 | 29484 ft | 372 kts | 226° |
| 2026-05-04 22:07 | 45.53118 | 151.92772 | 29495 ft | 368 kts | 227° |
| 2026-05-04 22:08 | 45.49616 | 151.87387 | 29499 ft | 370 kts | 226° |
| 2026-05-04 22:08 | 45.46116 | 151.82019 | 29494 ft | 373 kts | 227° |
| 2026-05-04 22:09 | 45.42608 | 151.76648 | 29496 ft | 370 kts | 227° |
| 2026-05-04 22:09 | 45.39105 | 151.71295 | 29496 ft | 373 kts | 227° |
| 2026-05-04 22:10 | 45.35570 | 151.65903 | 29506 ft | 370 kts | 227° |
| 2026-05-04 22:10 | 45.32059 | 151.60559 | 29513 ft | 374 kts | 227° |
| 2026-05-04 22:11 | 45.28519 | 151.55180 | 29511 ft | 373 kts | 227° |
| 2026-05-04 22:11 | 45.24995 | 151.49838 | 29516 ft | 371 kts | 227° |
| 2026-05-04 22:12 | 45.21452 | 151.44476 | 29508 ft | 370 kts | 227° |
| 2026-05-04 22:12 | 45.17919 | 151.39140 | 29508 ft | 373 kts | 227° |
| 2026-05-04 22:13 | 45.14389 | 151.33820 | 29534 ft | 371 kts | 226° |
| 2026-05-04 22:13 | 45.10871 | 151.28526 | 29530 ft | 373 kts | 226° |
| 2026-05-04 22:14 | 45.07316 | 151.23189 | 29539 ft | 371 kts | 226° |
| 2026-05-04 22:14 | 45.03810 | 151.17934 | 29536 ft | 371 kts | 226° |
| 2026-05-04 22:15 | 45.00279 | 151.12653 | 29541 ft | 368 kts | 227° |
| 2026-05-04 22:15 | 44.96755 | 151.07391 | 29540 ft | 371 kts | 226° |
| 2026-05-04 22:16 | 44.93211 | 151.02112 | 29539 ft | 372 kts | 226° |
| 2026-05-04 22:16 | 44.89665 | 150.96837 | 29555 ft | 372 kts | 226° |
| 2026-05-04 22:17 | 44.86110 | 150.91560 | 29583 ft | 373 kts | 227° |
| 2026-05-04 22:17 | 44.82532 | 150.86258 | 29597 ft | 372 kts | 226° |
| 2026-05-04 22:18 | 44.78971 | 150.80995 | 29601 ft | 371 kts | 226° |
| 2026-05-04 22:18 | 44.75380 | 150.75694 | 29592 ft | 373 kts | 226° |
| 2026-05-04 22:19 | 44.71800 | 150.70421 | 29591 ft | 376 kts | 227° |
| 2026-05-04 22:19 | 44.68219 | 150.65157 | 29590 ft | 373 kts | 226° |
| 2026-05-04 22:20 | 44.64642 | 150.59907 | 29589 ft | 373 kts | 227° |
| 2026-05-04 22:20 | 44.61049 | 150.54645 | 29597 ft | 375 kts | 227° |
| 2026-05-04 22:21 | 44.57432 | 150.49359 | 29598 ft | 377 kts | 227° |
| 2026-05-04 22:21 | 44.53771 | 150.44017 | 29585 ft | 378 kts | 226° |
| 2026-05-04 22:22 | 44.50149 | 150.38744 | 29591 ft | 374 kts | 226° |
| 2026-05-04 22:22 | 44.46560 | 150.33528 | 29623 ft | 374 kts | 226° |
| 2026-05-04 22:23 | 44.42931 | 150.28264 | 29629 ft | 375 kts | 227° |
| 2026-05-04 22:23 | 44.39314 | 150.23025 | 29632 ft | 376 kts | 227° |
| 2026-05-04 22:24 | 44.35695 | 150.17796 | 29631 ft | 376 kts | 226° |
| 2026-05-04 22:24 | 44.32056 | 150.12547 | 29637 ft | 374 kts | 227° |
| 2026-05-04 22:25 | 44.28427 | 150.07323 | 29642 ft | 375 kts | 226° |
| 2026-05-04 22:25 | 44.24817 | 150.02135 | 29645 ft | 374 kts | 226° |
| 2026-05-04 22:26 | 44.21153 | 149.96881 | 29652 ft | 378 kts | 226° |
| 2026-05-04 22:26 | 44.17488 | 149.91634 | 29657 ft | 376 kts | 226° |
| 2026-05-04 22:27 | 44.13852 | 149.86438 | 29658 ft | 375 kts | 226° |
| 2026-05-04 22:27 | 44.10201 | 149.81232 | 29659 ft | 375 kts | 226° |
| 2026-05-04 22:28 | 44.06566 | 149.76057 | 29665 ft | 379 kts | 226° |
| 2026-05-04 22:28 | 44.02875 | 149.70813 | 29665 ft | 377 kts | 226° |
| 2026-05-04 22:29 | 43.99192 | 149.65590 | 29662 ft | 379 kts | 226° |
| 2026-05-04 22:29 | 43.95518 | 149.60391 | 29668 ft | 377 kts | 226° |
| 2026-05-04 22:30 | 43.91840 | 149.55196 | 29667 ft | 380 kts | 226° |
| 2026-05-04 22:30 | 43.88141 | 149.49977 | 29690 ft | 379 kts | 226° |
| 2026-05-04 22:31 | 43.84466 | 149.44807 | 29686 ft | 380 kts | 226° |
| 2026-05-04 22:31 | 43.80764 | 149.39606 | 29680 ft | 379 kts | 227° |
| 2026-05-04 22:32 | 43.77072 | 149.34430 | 29688 ft | 378 kts | 226° |
| 2026-05-04 22:32 | 43.73345 | 149.29213 | 29704 ft | 381 kts | 226° |
| 2026-05-04 22:33 | 43.69627 | 149.24020 | 29708 ft | 380 kts | 225° |
| 2026-05-04 22:33 | 43.65937 | 149.18874 | 29721 ft | 379 kts | 226° |
| 2026-05-04 22:34 | 43.62219 | 149.13699 | 29722 ft | 378 kts | 226° |
| 2026-05-04 22:34 | 43.58508 | 149.08545 | 29713 ft | 378 kts | 226° |
| 2026-05-04 22:35 | 43.54819 | 149.03429 | 29720 ft | 380 kts | 226° |
| 2026-05-04 22:35 | 43.51080 | 148.98254 | 29720 ft | 379 kts | 226° |
| 2026-05-04 22:36 | 43.47363 | 148.93120 | 29725 ft | 379 kts | 226° |
| 2026-05-04 22:36 | 43.43654 | 148.88005 | 29726 ft | 378 kts | 226° |
| 2026-05-04 22:37 | 43.39945 | 148.82901 | 29721 ft | 377 kts | 226° |
| 2026-05-04 22:37 | 43.36204 | 148.77760 | 29718 ft | 381 kts | 226° |
| 2026-05-04 22:38 | 43.32478 | 148.72653 | 29717 ft | 377 kts | 226° |
| 2026-05-04 22:38 | 43.28773 | 148.67581 | 29721 ft | 380 kts | 226° |
| 2026-05-04 22:39 | 43.25052 | 148.62497 | 29715 ft | 377 kts | 226° |
| 2026-05-04 22:39 | 43.21322 | 148.57410 | 29713 ft | 378 kts | 226° |
| 2026-05-04 22:40 | 43.17598 | 148.52341 | 29721 ft | 380 kts | 226° |
| 2026-05-04 22:40 | 43.13853 | 148.47252 | 29718 ft | 377 kts | 226° |
| 2026-05-04 22:41 | 43.10118 | 148.42184 | 29724 ft | 382 kts | 226° |
| 2026-05-04 22:41 | 43.06342 | 148.37073 | 29726 ft | 378 kts | 226° |
| 2026-05-04 22:42 | 43.02608 | 148.32027 | 29753 ft | 380 kts | 225° |
| 2026-05-04 22:42 | 42.98846 | 148.26952 | 29763 ft | 383 kts | 225° |
| 2026-05-04 22:43 | 42.95055 | 148.21848 | 29759 ft | 380 kts | 225° |
| 2026-05-04 22:43 | 42.91286 | 148.16782 | 29758 ft | 379 kts | 225° |
| 2026-05-04 22:44 | 42.87501 | 148.11703 | 29783 ft | 385 kts | 226° |
| 2026-05-04 22:44 | 42.83706 | 148.06622 | 29783 ft | 382 kts | 226° |
| 2026-05-04 22:45 | 42.79923 | 148.01564 | 29782 ft | 384 kts | 226° |
| 2026-05-04 22:45 | 42.74210 | 147.93945 | 29787 ft | 385 kts | 226° |
| 2026-05-04 22:46 | 42.70413 | 147.88893 | 29793 ft | 383 kts | 226° |
| 2026-05-04 22:46 | 42.66544 | 147.83754 | 29784 ft | 386 kts | 226° |
| 2026-05-04 22:47 | 42.62761 | 147.78738 | 29787 ft | 381 kts | 225° |
| 2026-05-04 22:47 | 42.58919 | 147.73654 | 29780 ft | 384 kts | 225° |
| 2026-05-04 22:48 | 42.55092 | 147.68597 | 29791 ft | 385 kts | 225° |
| 2026-05-04 22:48 | 42.51263 | 147.63548 | 29796 ft | 387 kts | 226° |
| 2026-05-04 22:49 | 42.47439 | 147.58516 | 29798 ft | 382 kts | 226° |
| 2026-05-04 22:49 | 42.43598 | 147.53468 | 29795 ft | 386 kts | 225° |
| 2026-05-04 22:50 | 42.39767 | 147.48444 | 29785 ft | 384 kts | 226° |
| 2026-05-04 22:50 | 42.35899 | 147.43373 | 29797 ft | 387 kts | 226° |
| 2026-05-04 22:51 | 42.32053 | 147.38336 | 29792 ft | 385 kts | 225° |
| 2026-05-04 22:51 | 42.28205 | 147.33305 | 29809 ft | 385 kts | 225° |
| 2026-05-04 22:52 | 42.24356 | 147.28284 | 29823 ft | 386 kts | 225° |
| 2026-05-04 22:52 | 42.20512 | 147.23279 | 29828 ft | 383 kts | 225° |
| 2026-05-04 22:53 | 42.16628 | 147.18228 | 29818 ft | 387 kts | 225° |
| 2026-05-04 22:53 | 42.12790 | 147.13249 | 29832 ft | 384 kts | 225° |
| 2026-05-04 22:54 | 42.08918 | 147.08232 | 29823 ft | 384 kts | 225° |
| 2026-05-04 22:54 | 42.05077 | 147.03265 | 29832 ft | 386 kts | 225° |
| 2026-05-04 22:55 | 42.01204 | 146.98267 | 29822 ft | 387 kts | 225° |
| 2026-05-04 22:55 | 41.97339 | 146.93286 | 29837 ft | 387 kts | 225° |
| 2026-05-04 22:56 | 41.93462 | 146.88300 | 29837 ft | 387 kts | 225° |
| 2026-05-04 22:56 | 41.89598 | 146.83333 | 29838 ft | 385 kts | 225° |
| 2026-05-04 22:57 | 41.85703 | 146.78330 | 29858 ft | 386 kts | 225° |
| 2026-05-04 22:57 | 41.81840 | 146.73377 | 29861 ft | 385 kts | 225° |
| 2026-05-04 22:58 | 41.77944 | 146.68388 | 29864 ft | 390 kts | 225° |
| 2026-05-04 22:58 | 41.74037 | 146.63397 | 29863 ft | 386 kts | 226° |
| 2026-05-04 22:59 | 41.70133 | 146.58418 | 29863 ft | 388 kts | 226° |
| 2026-05-04 22:59 | 41.66224 | 146.53439 | 29850 ft | 389 kts | 226° |
| 2026-05-04 23:00 | 41.62302 | 146.48456 | 29854 ft | 387 kts | 225° |
| 2026-05-04 23:00 | 41.58404 | 146.43509 | 29862 ft | 389 kts | 226° |
| 2026-05-04 23:01 | 41.54481 | 146.38541 | 29862 ft | 390 kts | 225° |
| 2026-05-04 23:01 | 41.50540 | 146.33559 | 29881 ft | 389 kts | 225° |
| 2026-05-04 23:02 | 41.46627 | 146.28621 | 29885 ft | 389 kts | 226° |
| 2026-05-04 23:02 | 41.42665 | 146.23628 | 29883 ft | 389 kts | 225° |
| 2026-05-04 23:03 | 41.38758 | 146.18715 | 29883 ft | 391 kts | 225° |
| 2026-05-04 23:03 | 41.34794 | 146.13737 | 29882 ft | 390 kts | 225° |
| 2026-05-04 23:04 | 41.30862 | 146.08810 | 29889 ft | 388 kts | 225° |
| 2026-05-04 23:04 | 41.26915 | 146.03871 | 29895 ft | 390 kts | 225° |
| 2026-05-04 23:05 | 41.22990 | 145.98970 | 29896 ft | 389 kts | 225° |
| 2026-05-04 23:05 | 41.19047 | 145.94054 | 29893 ft | 390 kts | 225° |
| 2026-05-04 23:06 | 41.15090 | 145.89131 | 29896 ft | 388 kts | 225° |
| 2026-05-04 23:06 | 41.11118 | 145.84195 | 29894 ft | 391 kts | 225° |
| 2026-05-04 23:07 | 41.07164 | 145.79291 | 29895 ft | 389 kts | 225° |
| 2026-05-04 23:07 | 41.03211 | 145.74397 | 29889 ft | 391 kts | 226° |
| 2026-05-04 23:08 | 40.99255 | 145.69507 | 29901 ft | 392 kts | 226° |
| 2026-05-04 23:08 | 40.95260 | 145.64577 | 29898 ft | 391 kts | 226° |
| 2026-05-04 23:09 | 40.91288 | 145.59686 | 29902 ft | 392 kts | 226° |
| 2026-05-04 23:09 | 40.87300 | 145.54782 | 29923 ft | 393 kts | 225° |
| 2026-05-04 23:10 | 40.83324 | 145.49902 | 29923 ft | 392 kts | 226° |
| 2026-05-04 23:10 | 40.79339 | 145.45018 | 29925 ft | 391 kts | 226° |
| 2026-05-04 23:11 | 40.75317 | 145.40099 | 29924 ft | 394 kts | 226° |
| 2026-05-04 23:11 | 40.71325 | 145.35225 | 29930 ft | 392 kts | 226° |
| 2026-05-04 23:12 | 40.67301 | 145.30318 | 29947 ft | 392 kts | 225° |
| 2026-05-04 23:12 | 40.63306 | 145.25456 | 29947 ft | 392 kts | 226° |
| 2026-05-04 23:13 | 40.59272 | 145.20555 | 29954 ft | 394 kts | 225° |
| 2026-05-04 23:13 | 40.55251 | 145.15677 | 29953 ft | 395 kts | 225° |
| 2026-05-04 23:14 | 40.51231 | 145.10811 | 29948 ft | 393 kts | 225° |
| 2026-05-04 23:14 | 40.47232 | 145.05978 | 29953 ft | 392 kts | 226° |
| 2026-05-04 23:15 | 40.43200 | 145.01105 | 29950 ft | 395 kts | 227° |
| 2026-05-04 23:15 | 40.39958 | 144.95378 | 29961 ft | 390 kts | 238° |
| 2026-05-04 23:16 | 40.37154 | 144.89313 | 29958 ft | 390 kts | 239° |
| 2026-05-04 23:16 | 40.34320 | 144.83209 | 29962 ft | 390 kts | 238° |
| 2026-05-04 23:17 | 40.31486 | 144.77125 | 29970 ft | 392 kts | 239° |
| 2026-05-04 23:17 | 40.28645 | 144.71045 | 29978 ft | 391 kts | 238° |
| 2026-05-04 23:18 | 40.25804 | 144.64978 | 29979 ft | 391 kts | 239° |
| 2026-05-04 23:18 | 40.22942 | 144.58879 | 29974 ft | 394 kts | 238° |
| 2026-05-04 23:19 | 40.20072 | 144.52776 | 29978 ft | 392 kts | 238° |
| 2026-05-04 23:19 | 40.17209 | 144.46699 | 29989 ft | 396 kts | 239° |
| 2026-05-04 23:20 | 40.14295 | 144.40527 | 29977 ft | 396 kts | 239° |
| 2026-05-04 23:20 | 40.11417 | 144.34444 | 29985 ft | 398 kts | 239° |
| 2026-05-04 23:21 | 40.08518 | 144.28328 | 29997 ft | 396 kts | 239° |
| 2026-05-04 23:21 | 40.05611 | 144.22206 | 30009 ft | 398 kts | 239° |
| 2026-05-04 23:22 | 40.02690 | 144.16066 | 30015 ft | 398 kts | 239° |
| 2026-05-04 23:22 | 39.99777 | 144.09956 | 29999 ft | 398 kts | 239° |
| 2026-05-04 23:23 | 39.96849 | 144.03827 | 29990 ft | 399 kts | 239° |
| 2026-05-04 23:23 | 39.93890 | 143.97647 | 29999 ft | 400 kts | 239° |
| 2026-05-04 23:24 | 39.90934 | 143.91483 | 30005 ft | 399 kts | 238° |
| 2026-05-04 23:24 | 39.87965 | 143.85304 | 30016 ft | 401 kts | 239° |
| 2026-05-04 23:25 | 39.84966 | 143.79074 | 30017 ft | 402 kts | 239° |
| 2026-05-04 23:25 | 39.81982 | 143.72891 | 30021 ft | 402 kts | 239° |
| 2026-05-04 23:26 | 39.78998 | 143.66716 | 30021 ft | 404 kts | 239° |
| 2026-05-04 23:26 | 39.76005 | 143.60538 | 30020 ft | 404 kts | 239° |
| 2026-05-04 23:27 | 39.72994 | 143.54332 | 30022 ft | 404 kts | 239° |
| 2026-05-04 23:27 | 39.69993 | 143.48160 | 30024 ft | 405 kts | 239° |
| 2026-05-04 23:28 | 39.66972 | 143.41960 | 30026 ft | 407 kts | 240° |
| 2026-05-04 23:28 | 39.63954 | 143.35779 | 30038 ft | 405 kts | 239° |
| 2026-05-04 23:29 | 39.60898 | 143.29530 | 30040 ft | 409 kts | 239° |
| 2026-05-04 23:29 | 39.57864 | 143.23340 | 30058 ft | 406 kts | 239° |
| 2026-05-04 23:30 | 39.54795 | 143.17090 | 30052 ft | 406 kts | 239° |
| 2026-05-04 23:30 | 39.51732 | 143.10864 | 30047 ft | 406 kts | 239° |
| 2026-05-04 23:31 | 39.48690 | 143.04694 | 30043 ft | 408 kts | 239° |
| 2026-05-04 23:31 | 39.45628 | 142.98494 | 30039 ft | 410 kts | 239° |
| 2026-05-04 23:32 | 39.42585 | 142.92345 | 30061 ft | 408 kts | 239° |
| 2026-05-04 23:32 | 39.39503 | 142.86131 | 30058 ft | 408 kts | 239° |
| 2026-05-04 23:33 | 39.36452 | 142.79990 | 30055 ft | 409 kts | 240° |
| 2026-05-04 23:33 | 39.33380 | 142.73817 | 30052 ft | 410 kts | 240° |
| 2026-05-04 23:34 | 39.30307 | 142.67656 | 30062 ft | 409 kts | 240° |
| 2026-05-04 23:34 | 39.27221 | 142.61482 | 30050 ft | 407 kts | 240° |
| 2026-05-04 23:35 | 39.24144 | 142.55337 | 30063 ft | 408 kts | 240° |
| 2026-05-04 23:35 | 39.20654 | 142.49582 | 30057 ft | 410 kts | 234° |
| 2026-05-04 23:36 | 39.16918 | 142.43932 | 30050 ft | 411 kts | 234° |
| 2026-05-04 23:36 | 39.13242 | 142.38390 | 30065 ft | 409 kts | 234° |
| 2026-05-04 23:37 | 39.09504 | 142.32764 | 30079 ft | 409 kts | 233° |
| 2026-05-04 23:37 | 39.05635 | 142.26952 | 30080 ft | 409 kts | 233° |
| 2026-05-04 23:38 | 39.01901 | 142.21355 | 30066 ft | 410 kts | 234° |
| 2026-05-04 23:38 | 38.98165 | 142.15764 | 30081 ft | 410 kts | 234° |
| 2026-05-04 23:39 | 38.94422 | 142.10172 | 30079 ft | 409 kts | 234° |
| 2026-05-04 23:39 | 38.90713 | 142.04640 | 30074 ft | 409 kts | 234° |
| 2026-05-04 23:40 | 38.86985 | 141.99091 | 30088 ft | 408 kts | 234° |
| 2026-05-04 23:40 | 38.83247 | 141.93535 | 30083 ft | 410 kts | 234° |
| 2026-05-04 23:41 | 38.79533 | 141.88028 | 30088 ft | 408 kts | 234° |
| 2026-05-04 23:41 | 38.75820 | 141.82527 | 30080 ft | 412 kts | 234° |
| 2026-05-04 23:42 | 38.72072 | 141.76987 | 30084 ft | 409 kts | 234° |
| 2026-05-04 23:42 | 38.68332 | 141.71468 | 30085 ft | 412 kts | 234° |
| 2026-05-04 23:43 | 38.64608 | 141.65982 | 30077 ft | 409 kts | 234° |
| 2026-05-04 23:43 | 38.60862 | 141.60472 | 30089 ft | 413 kts | 234° |
| 2026-05-04 23:44 | 38.57084 | 141.54929 | 30093 ft | 410 kts | 235° |
| 2026-05-04 23:44 | 38.53321 | 141.49412 | 30086 ft | 411 kts | 235° |
| 2026-05-04 23:45 | 38.49555 | 141.43904 | 30078 ft | 412 kts | 234° |
| 2026-05-04 23:45 | 38.45790 | 141.38406 | 30097 ft | 412 kts | 234° |
| 2026-05-04 23:46 | 38.41994 | 141.32873 | 30109 ft | 409 kts | 234° |
| 2026-05-04 23:46 | 38.38152 | 141.27280 | 30107 ft | 412 kts | 234° |
| 2026-05-04 23:47 | 38.34330 | 141.21727 | 30111 ft | 413 kts | 234° |
| 2026-05-04 23:47 | 38.30496 | 141.16167 | 30105 ft | 413 kts | 234° |
| 2026-05-04 23:48 | 38.26691 | 141.10660 | 30101 ft | 407 kts | 234° |
| 2026-05-04 23:48 | 38.23114 | 141.05490 | 30113 ft | 411 kts | 234° |
| 2026-05-04 23:49 | 38.19286 | 140.99965 | 30101 ft | 408 kts | 234° |
| 2026-05-04 23:49 | 38.15665 | 140.94463 | 30103 ft | 402 kts | 242° |
| 2026-05-04 23:50 | 38.13806 | 140.89433 | 30102 ft | 398 kts | 255° |
| 2026-05-04 23:50 | 38.12918 | 140.82504 | 30100 ft | 399 kts | 263° |
| 2026-05-04 23:51 | 38.12289 | 140.75475 | 30112 ft | 397 kts | 263° |
| 2026-05-04 23:51 | 38.11632 | 140.68329 | 30107 ft | 400 kts | 263° |
| 2026-05-04 23:52 | 38.10966 | 140.61197 | 30116 ft | 403 kts | 263° |
| 2026-05-04 23:52 | 38.10285 | 140.53993 | 30104 ft | 398 kts | 263° |
| 2026-05-04 23:53 | 38.09605 | 140.46864 | 30097 ft | 408 kts | 263° |
| 2026-05-04 23:53 | 38.08915 | 140.39679 | 30102 ft | 403 kts | 263° |
| 2026-05-04 23:54 | 38.08220 | 140.32495 | 30118 ft | 408 kts | 263° |
| 2026-05-04 23:54 | 38.07505 | 140.25156 | 30135 ft | 406 kts | 263° |
| 2026-05-04 23:55 | 38.06783 | 140.17796 | 30115 ft | 407 kts | 263° |
| 2026-05-04 23:56 | 38.05698 | 140.06821 | 30112 ft | 411 kts | 263° |
| 2026-05-04 23:56 | 38.04960 | 139.99416 | 30122 ft | 412 kts | 263° |
| 2026-05-04 23:57 | 38.04218 | 139.92018 | 30119 ft | 412 kts | 263° |
| 2026-05-04 23:57 | 38.03471 | 139.84615 | 30112 ft | 416 kts | 263° |
| 2026-05-04 23:58 | 38.02720 | 139.77223 | 30115 ft | 416 kts | 263° |
| 2026-05-04 23:58 | 38.01966 | 139.69855 | 30128 ft | 416 kts | 264° |
| 2026-05-04 23:59 | 38.01217 | 139.62569 | 30125 ft | 414 kts | 264° |
| 2026-05-04 23:59 | 38.00460 | 139.55260 | 30127 ft | 416 kts | 263° |
| 2026-05-05 00:00 | 37.99686 | 139.47836 | 30109 ft | 418 kts | 264° |
| 2026-05-05 00:00 | 37.98915 | 139.40485 | 30133 ft | 419 kts | 264° |
| 2026-05-05 00:01 | 37.98135 | 139.33092 | 30175 ft | 414 kts | 263° |
| 2026-05-05 00:01 | 37.97353 | 139.25713 | 30174 ft | 417 kts | 264° |
| 2026-05-05 00:02 | 37.96561 | 139.18301 | 30177 ft | 418 kts | 264° |
| 2026-05-05 00:02 | 37.95524 | 139.11003 | 30179 ft | 422 kts | 255° |
| 2026-05-05 00:03 | 37.93248 | 139.04016 | 30158 ft | 423 kts | 250° |
| 2026-05-05 00:03 | 37.90858 | 138.97101 | 30180 ft | 426 kts | 250° |
| 2026-05-05 00:04 | 37.88438 | 138.90123 | 30182 ft | 425 kts | 250° |
| 2026-05-05 00:04 | 37.86042 | 138.83231 | 30178 ft | 426 kts | 251° |
| 2026-05-05 00:05 | 37.83647 | 138.76356 | 30184 ft | 425 kts | 250° |
| 2026-05-05 00:05 | 37.81261 | 138.69527 | 30195 ft | 422 kts | 251° |
| 2026-05-05 00:06 | 37.78845 | 138.62620 | 30208 ft | 424 kts | 250° |
| 2026-05-05 00:06 | 37.76408 | 138.55673 | 30178 ft | 425 kts | 251° |
| 2026-05-05 00:07 | 37.73988 | 138.48791 | 30180 ft | 426 kts | 251° |
| 2026-05-05 00:07 | 37.71540 | 138.41846 | 30159 ft | 430 kts | 251° |
| 2026-05-05 00:08 | 37.69084 | 138.34889 | 30156 ft | 429 kts | 250° |
| 2026-05-05 00:08 | 37.66636 | 138.27974 | 30173 ft | 431 kts | 250° |
| 2026-05-05 00:09 | 37.64177 | 138.21040 | 30190 ft | 430 kts | 250° |
| 2026-05-05 00:09 | 37.61689 | 138.14041 | 30163 ft | 431 kts | 250° |
| 2026-05-05 00:10 | 37.59207 | 138.07080 | 30206 ft | 429 kts | 250° |
| 2026-05-05 00:10 | 37.56718 | 138.00107 | 30183 ft | 434 kts | 250° |
| 2026-05-05 00:11 | 37.54212 | 137.93111 | 30191 ft | 431 kts | 250° |
| 2026-05-05 00:11 | 37.51721 | 137.86169 | 30163 ft | 430 kts | 250° |
| 2026-05-05 00:12 | 37.49236 | 137.79260 | 30178 ft | 427 kts | 250° |
| 2026-05-05 00:12 | 37.46751 | 137.72365 | 30177 ft | 431 kts | 250° |
| 2026-05-05 00:13 | 37.44276 | 137.65517 | 30180 ft | 429 kts | 250° |
| 2026-05-05 00:13 | 37.41783 | 137.58632 | 30172 ft | 430 kts | 250° |
| 2026-05-05 00:14 | 37.39274 | 137.51718 | 30193 ft | 429 kts | 250° |
| 2026-05-05 00:14 | 37.36786 | 137.44878 | 30178 ft | 429 kts | 250° |
| 2026-05-05 00:15 | 37.34288 | 137.38026 | 30154 ft | 428 kts | 250° |
| 2026-05-05 00:15 | 37.31804 | 137.31226 | 30180 ft | 432 kts | 249° |
| 2026-05-05 00:16 | 37.29293 | 137.24370 | 30167 ft | 431 kts | 249° |
| 2026-05-05 00:16 | 37.26791 | 137.17555 | 30191 ft | 432 kts | 249° |
| 2026-05-05 00:17 | 37.24284 | 137.10738 | 30195 ft | 432 kts | 249° |
| 2026-05-05 00:17 | 37.21762 | 137.03899 | 30162 ft | 432 kts | 249° |
| 2026-05-05 00:18 | 37.19222 | 136.97025 | 30204 ft | 432 kts | 249° |
| 2026-05-05 00:18 | 37.16701 | 136.90218 | 30195 ft | 432 kts | 249° |
| 2026-05-05 00:19 | 37.14175 | 136.83412 | 30190 ft | 431 kts | 249° |
| 2026-05-05 00:19 | 37.11620 | 136.76543 | 30180 ft | 431 kts | 249° |
| 2026-05-05 00:20 | 37.09076 | 136.69717 | 30186 ft | 434 kts | 249° |
| 2026-05-05 00:20 | 37.06519 | 136.62871 | 30188 ft | 432 kts | 249° |
| 2026-05-05 00:21 | 37.03978 | 136.56082 | 30209 ft | 431 kts | 248° |
| 2026-05-05 00:21 | 37.01412 | 136.49243 | 30168 ft | 433 kts | 248° |
| 2026-05-05 00:22 | 36.98853 | 136.42439 | 30194 ft | 433 kts | 248° |
| 2026-05-05 00:22 | 36.96279 | 136.35606 | 30196 ft | 435 kts | 248° |
| 2026-05-05 00:23 | 36.93686 | 136.28742 | 30209 ft | 434 kts | 248° |
| 2026-05-05 00:23 | 36.91111 | 136.21938 | 30199 ft | 434 kts | 248° |
| 2026-05-05 00:24 | 36.88505 | 136.15067 | 30194 ft | 434 kts | 248° |
| 2026-05-05 00:24 | 36.85883 | 136.08170 | 30209 ft | 434 kts | 248° |
| 2026-05-05 00:25 | 36.83248 | 136.01253 | 30201 ft | 434 kts | 247° |
| 2026-05-05 00:25 | 36.80638 | 135.94418 | 30195 ft | 436 kts | 248° |
| 2026-05-05 00:26 | 36.78016 | 135.87566 | 30198 ft | 436 kts | 247° |
| 2026-05-05 00:26 | 36.75383 | 135.80699 | 30200 ft | 437 kts | 247° |
| 2026-05-05 00:27 | 36.72750 | 135.73848 | 30186 ft | 437 kts | 247° |
| 2026-05-05 00:27 | 36.70129 | 135.67046 | 30186 ft | 436 kts | 247° |
| 2026-05-05 00:28 | 36.67482 | 135.60185 | 30188 ft | 438 kts | 247° |
| 2026-05-05 00:28 | 36.64826 | 135.53320 | 30177 ft | 439 kts | 247° |
| 2026-05-05 00:29 | 36.62178 | 135.46490 | 30189 ft | 438 kts | 247° |
| 2026-05-05 00:29 | 36.59515 | 135.39636 | 30180 ft | 440 kts | 247° |
| 2026-05-05 00:30 | 36.56833 | 135.32748 | 30190 ft | 439 kts | 246° |
| 2026-05-05 00:30 | 36.54175 | 135.25935 | 30194 ft | 442 kts | 246° |
| 2026-05-05 00:31 | 36.51500 | 135.19096 | 30192 ft | 440 kts | 246° |
| 2026-05-05 00:31 | 36.48814 | 135.12242 | 30177 ft | 442 kts | 246° |
| 2026-05-05 00:32 | 36.46125 | 135.05394 | 30176 ft | 441 kts | 246° |
| 2026-05-05 00:32 | 36.43446 | 134.98587 | 30186 ft | 442 kts | 246° |
| 2026-05-05 00:33 | 36.40734 | 134.91713 | 30177 ft | 442 kts | 246° |
| 2026-05-05 00:33 | 36.38027 | 134.84863 | 30173 ft | 443 kts | 246° |
| 2026-05-05 00:34 | 36.35299 | 134.77977 | 30197 ft | 443 kts | 246° |
| 2026-05-05 00:34 | 36.32579 | 134.71124 | 30188 ft | 442 kts | 246° |
| 2026-05-05 00:35 | 36.29867 | 134.64308 | 30179 ft | 442 kts | 246° |
| 2026-05-05 00:35 | 36.27158 | 134.57512 | 30169 ft | 440 kts | 246° |
| 2026-05-05 00:36 | 36.24413 | 134.50691 | 30163 ft | 442 kts | 243° |
| 2026-05-05 00:36 | 36.21225 | 134.44136 | 30185 ft | 444 kts | 241° |
| 2026-05-05 00:37 | 36.17973 | 134.37582 | 30163 ft | 444 kts | 241° |
| 2026-05-05 00:37 | 36.14746 | 134.31093 | 30178 ft | 443 kts | 240° |
| 2026-05-05 00:38 | 36.11511 | 134.24600 | 30180 ft | 444 kts | 240° |
| 2026-05-05 00:38 | 36.08268 | 134.18100 | 30175 ft | 443 kts | 240° |
| 2026-05-05 00:39 | 36.05032 | 134.11626 | 30156 ft | 444 kts | 240° |
| 2026-05-05 00:39 | 36.01785 | 134.05144 | 30165 ft | 442 kts | 240° |
| 2026-05-05 00:40 | 35.98562 | 133.98721 | 30166 ft | 441 kts | 240° |
| 2026-05-05 00:40 | 35.95316 | 133.92264 | 30172 ft | 442 kts | 240° |
| 2026-05-05 00:41 | 35.92072 | 133.85823 | 30174 ft | 443 kts | 240° |
| 2026-05-05 00:41 | 35.88838 | 133.79414 | 30172 ft | 441 kts | 240° |
| 2026-05-05 00:42 | 35.85566 | 133.72940 | 30166 ft | 442 kts | 240° |
| 2026-05-05 00:42 | 35.82283 | 133.66460 | 30160 ft | 443 kts | 240° |
| 2026-05-05 00:43 | 35.78965 | 133.59920 | 30156 ft | 442 kts | 240° |
| 2026-05-05 00:43 | 35.75717 | 133.53531 | 30148 ft | 441 kts | 240° |
| 2026-05-05 00:44 | 35.72471 | 133.47157 | 30159 ft | 440 kts | 240° |
| 2026-05-05 00:44 | 35.69200 | 133.40749 | 30159 ft | 441 kts | 240° |
| 2026-05-05 00:45 | 35.65960 | 133.34412 | 30157 ft | 440 kts | 240° |
| 2026-05-05 00:45 | 35.62690 | 133.28027 | 30163 ft | 440 kts | 240° |
| 2026-05-05 00:46 | 35.59439 | 133.21689 | 30172 ft | 439 kts | 239° |
| 2026-05-05 00:46 | 35.56166 | 133.15323 | 30163 ft | 440 kts | 240° |
| 2026-05-05 00:47 | 35.52848 | 133.09000 | 30145 ft | 442 kts | 236° |
| 2026-05-05 00:47 | 35.49145 | 133.03046 | 30169 ft | 440 kts | 235° |
| 2026-05-05 00:48 | 35.45380 | 132.97052 | 30156 ft | 441 kts | 235° |
| 2026-05-05 00:48 | 35.41710 | 132.91217 | 30163 ft | 442 kts | 235° |
| 2026-05-05 00:49 | 35.38115 | 132.85510 | 30150 ft | 440 kts | 235° |
| 2026-05-05 00:49 | 35.34373 | 132.79578 | 30145 ft | 440 kts | 235° |
| 2026-05-05 00:50 | 35.30614 | 132.73630 | 30170 ft | 440 kts | 235° |
| 2026-05-05 00:50 | 35.26914 | 132.67783 | 30142 ft | 440 kts | 235° |
| 2026-05-05 00:51 | 35.23190 | 132.61909 | 30150 ft | 439 kts | 235° |
| 2026-05-05 00:51 | 35.19417 | 132.55966 | 30145 ft | 440 kts | 234° |
| 2026-05-05 00:52 | 35.15683 | 132.50096 | 30147 ft | 439 kts | 234° |
| 2026-05-05 00:52 | 35.11921 | 132.44191 | 30142 ft | 441 kts | 235° |
| 2026-05-05 00:53 | 35.08145 | 132.38275 | 30148 ft | 440 kts | 234° |
| 2026-05-05 00:53 | 35.04380 | 132.32385 | 30158 ft | 441 kts | 234° |
| 2026-05-05 00:54 | 35.00618 | 132.26511 | 30153 ft | 441 kts | 234° |
| 2026-05-05 00:54 | 34.96837 | 132.20618 | 30151 ft | 440 kts | 234° |
| 2026-05-05 00:55 | 34.93065 | 132.14746 | 30148 ft | 439 kts | 234° |
| 2026-05-05 00:55 | 34.89298 | 132.08893 | 30153 ft | 439 kts | 234° |
| 2026-05-05 00:56 | 34.85504 | 132.03008 | 30157 ft | 438 kts | 234° |
| 2026-05-05 00:56 | 34.81705 | 131.97124 | 30157 ft | 439 kts | 234° |
| 2026-05-05 00:57 | 34.77866 | 131.91193 | 30160 ft | 438 kts | 234° |
| 2026-05-05 00:57 | 34.74028 | 131.85275 | 30161 ft | 437 kts | 234° |
| 2026-05-05 00:58 | 34.70168 | 131.79334 | 30165 ft | 438 kts | 234° |
| 2026-05-05 00:58 | 34.66319 | 131.73419 | 30169 ft | 434 kts | 234° |
| 2026-05-05 00:59 | 34.62515 | 131.67583 | 30158 ft | 435 kts | 234° |
| 2026-05-05 00:59 | 34.58659 | 131.61678 | 30157 ft | 433 kts | 234° |
| 2026-05-05 01:00 | 34.54813 | 131.55794 | 30155 ft | 435 kts | 234° |
| 2026-05-05 01:00 | 34.51007 | 131.49985 | 30153 ft | 433 kts | 234° |
| 2026-05-05 01:01 | 34.47212 | 131.44200 | 30144 ft | 433 kts | 234° |
| 2026-05-05 01:01 | 34.43399 | 131.38400 | 30149 ft | 433 kts | 234° |
| 2026-05-05 01:02 | 34.39596 | 131.32625 | 30153 ft | 432 kts | 234° |
| 2026-05-05 01:02 | 34.35853 | 131.26950 | 30152 ft | 432 kts | 234° |
| 2026-05-05 01:03 | 34.32086 | 131.21249 | 30161 ft | 430 kts | 233° |
| 2026-05-05 01:03 | 34.28342 | 131.15590 | 30157 ft | 431 kts | 234° |
| 2026-05-05 01:04 | 34.24557 | 131.09880 | 30155 ft | 430 kts | 234° |
| 2026-05-05 01:04 | 34.18787 | 131.01294 | 30148 ft | 431 kts | 230° |
| 2026-05-05 01:05 | 34.14539 | 130.96037 | 30153 ft | 432 kts | 229° |
| 2026-05-05 01:05 | 34.10222 | 130.90753 | 30148 ft | 431 kts | 229° |
| 2026-05-05 01:06 | 34.05982 | 130.85567 | 30152 ft | 431 kts | 229° |
| 2026-05-05 01:06 | 34.01742 | 130.80386 | 30152 ft | 429 kts | 229° |
| 2026-05-05 01:07 | 33.97476 | 130.75180 | 30149 ft | 431 kts | 229° |
| 2026-05-05 01:07 | 33.93256 | 130.70038 | 30134 ft | 429 kts | 229° |
| 2026-05-05 01:08 | 33.89061 | 130.64934 | 30154 ft | 428 kts | 229° |
| 2026-05-05 01:08 | 33.84823 | 130.59786 | 30149 ft | 428 kts | 229° |
| 2026-05-05 01:09 | 33.80613 | 130.54677 | 30149 ft | 428 kts | 229° |
| 2026-05-05 01:09 | 33.76396 | 130.49570 | 30146 ft | 425 kts | 229° |
| 2026-05-05 01:10 | 33.72217 | 130.44514 | 30151 ft | 424 kts | 229° |
| 2026-05-05 01:10 | 33.68019 | 130.39421 | 30147 ft | 423 kts | 231° |
| 2026-05-05 01:11 | 33.64375 | 130.33855 | 30157 ft | 421 kts | 235° |
| 2026-05-05 01:11 | 33.60796 | 130.28189 | 30164 ft | 419 kts | 235° |
| 2026-05-05 01:12 | 33.57236 | 130.22568 | 30168 ft | 419 kts | 235° |
| 2026-05-05 01:12 | 33.53657 | 130.16928 | 30162 ft | 417 kts | 236° |
| 2026-05-05 01:13 | 33.50109 | 130.11346 | 30164 ft | 419 kts | 235° |
| 2026-05-05 01:13 | 33.46534 | 130.05734 | 30159 ft | 416 kts | 236° |
| 2026-05-05 01:14 | 33.42985 | 130.00169 | 30152 ft | 417 kts | 235° |
| 2026-05-05 01:14 | 33.39422 | 129.94592 | 30151 ft | 416 kts | 235° |
| 2026-05-05 01:15 | 33.35881 | 129.89058 | 30148 ft | 415 kts | 235° |
| 2026-05-05 01:15 | 33.32327 | 129.83511 | 30147 ft | 415 kts | 235° |
| 2026-05-05 01:16 | 33.28801 | 129.78018 | 30152 ft | 412 kts | 235° |
| 2026-05-05 01:16 | 33.25235 | 129.72472 | 30150 ft | 413 kts | 235° |
| 2026-05-05 01:17 | 33.21731 | 129.67027 | 30153 ft | 412 kts | 235° |
| 2026-05-05 01:17 | 33.18200 | 129.61545 | 30144 ft | 410 kts | 235° |
| 2026-05-05 01:18 | 33.14654 | 129.56043 | 30145 ft | 412 kts | 235° |
| 2026-05-05 01:18 | 33.11086 | 129.50516 | 30140 ft | 410 kts | 236° |
| 2026-05-05 01:19 | 33.07563 | 129.45064 | 30137 ft | 411 kts | 235° |
| 2026-05-05 01:19 | 33.04096 | 129.39710 | 30132 ft | 410 kts | 236° |
| 2026-05-05 01:20 | 33.00617 | 129.34343 | 30135 ft | 407 kts | 235° |
| 2026-05-05 01:20 | 32.97133 | 129.28975 | 30154 ft | 409 kts | 235° |
| 2026-05-05 01:21 | 32.93644 | 129.23612 | 30160 ft | 408 kts | 235° |
| 2026-05-05 01:21 | 32.90168 | 129.18272 | 30141 ft | 406 kts | 235° |
| 2026-05-05 01:22 | 32.86685 | 129.12930 | 30151 ft | 409 kts | 235° |
| 2026-05-05 01:22 | 32.83208 | 129.07608 | 30161 ft | 407 kts | 235° |
| 2026-05-05 01:23 | 32.79739 | 129.02303 | 30157 ft | 406 kts | 236° |
| 2026-05-05 01:23 | 32.76249 | 128.96973 | 30152 ft | 406 kts | 235° |
| 2026-05-05 01:24 | 32.72789 | 128.91696 | 30150 ft | 405 kts | 235° |
| 2026-05-05 01:24 | 32.69315 | 128.86406 | 30154 ft | 406 kts | 235° |
| 2026-05-05 01:25 | 32.65582 | 128.81358 | 30154 ft | 411 kts | 227° |
| 2026-05-05 01:25 | 32.61295 | 128.76869 | 30159 ft | 410 kts | 226° |
| 2026-05-05 01:26 | 32.56987 | 128.72385 | 30149 ft | 410 kts | 226° |
| 2026-05-05 01:26 | 32.52709 | 128.67938 | 30154 ft | 409 kts | 226° |
| 2026-05-05 01:27 | 32.48420 | 128.63486 | 30142 ft | 409 kts | 226° |
| 2026-05-05 01:27 | 32.44144 | 128.59053 | 30139 ft | 407 kts | 226° |
| 2026-05-05 01:28 | 32.39875 | 128.54633 | 30142 ft | 408 kts | 226° |
| 2026-05-05 01:28 | 32.35601 | 128.50212 | 30138 ft | 407 kts | 226° |
| 2026-05-05 01:29 | 32.31337 | 128.45808 | 30132 ft | 407 kts | 226° |
| 2026-05-05 01:29 | 32.27109 | 128.41449 | 30139 ft | 405 kts | 226° |
| 2026-05-05 01:30 | 32.22848 | 128.37058 | 30136 ft | 405 kts | 226° |
| 2026-05-05 01:30 | 32.18586 | 128.32674 | 30147 ft | 405 kts | 226° |
| 2026-05-05 01:31 | 32.14333 | 128.28305 | 30151 ft | 403 kts | 226° |
| 2026-05-05 01:31 | 32.10098 | 128.23959 | 30159 ft | 404 kts | 226° |
| 2026-05-05 01:32 | 32.05852 | 128.19606 | 30149 ft | 401 kts | 226° |
| 2026-05-05 01:32 | 32.01654 | 128.15311 | 30156 ft | 400 kts | 226° |
| 2026-05-05 01:33 | 31.97429 | 128.10991 | 30147 ft | 402 kts | 226° |
| 2026-05-05 01:33 | 31.93176 | 128.06648 | 30142 ft | 402 kts | 226° |
| 2026-05-05 01:34 | 31.88936 | 128.02325 | 30153 ft | 403 kts | 226° |
| 2026-05-05 01:34 | 31.84722 | 127.98033 | 30158 ft | 403 kts | 226° |
| 2026-05-05 01:35 | 31.80488 | 127.93727 | 30152 ft | 403 kts | 226° |
| 2026-05-05 01:35 | 31.76234 | 127.89406 | 30149 ft | 402 kts | 226° |
| 2026-05-05 01:36 | 31.72003 | 127.85113 | 30151 ft | 402 kts | 226° |
| 2026-05-05 01:36 | 31.67740 | 127.80793 | 30150 ft | 405 kts | 226° |
| 2026-05-05 01:37 | 31.63511 | 127.76514 | 30149 ft | 402 kts | 226° |
| 2026-05-05 01:37 | 31.59271 | 127.72228 | 30153 ft | 404 kts | 226° |
| 2026-05-05 01:38 | 31.54993 | 127.67910 | 30156 ft | 405 kts | 226° |
| 2026-05-05 01:38 | 31.50730 | 127.63612 | 30163 ft | 405 kts | 226° |
| 2026-05-05 01:39 | 31.46464 | 127.59317 | 30145 ft | 404 kts | 226° |
| 2026-05-05 01:39 | 31.42191 | 127.55020 | 30149 ft | 404 kts | 226° |
| 2026-05-05 01:40 | 31.37926 | 127.50736 | 30152 ft | 403 kts | 226° |
| 2026-05-05 01:40 | 31.33663 | 127.46459 | 30149 ft | 404 kts | 226° |
| 2026-05-05 01:41 | 31.29382 | 127.42170 | 30142 ft | 405 kts | 226° |
| 2026-05-05 01:41 | 31.25070 | 127.37963 | 30135 ft | 409 kts | 221° |
| 2026-05-05 01:42 | 31.20308 | 127.34271 | 30148 ft | 409 kts | 219° |
| 2026-05-05 01:42 | 31.15498 | 127.30597 | 30160 ft | 412 kts | 219° |
| 2026-05-05 01:43 | 31.10710 | 127.26945 | 30166 ft | 411 kts | 219° |
| 2026-05-05 01:43 | 31.05942 | 127.23312 | 30159 ft | 410 kts | 219° |
| 2026-05-05 01:44 | 31.01144 | 127.19658 | 30174 ft | 411 kts | 219° |
| 2026-05-05 01:44 | 30.96370 | 127.16027 | 30171 ft | 410 kts | 219° |
| 2026-05-05 01:45 | 30.91590 | 127.12397 | 30166 ft | 410 kts | 219° |
| 2026-05-05 01:45 | 30.86793 | 127.08758 | 30176 ft | 410 kts | 219° |
| 2026-05-05 01:46 | 30.82019 | 127.05141 | 30173 ft | 410 kts | 219° |
| 2026-05-05 01:46 | 30.77237 | 127.01522 | 30166 ft | 410 kts | 219° |
| 2026-05-05 01:47 | 30.72465 | 126.97916 | 30168 ft | 409 kts | 219° |
| 2026-05-05 01:47 | 30.67642 | 126.94273 | 30166 ft | 410 kts | 219° |
| 2026-05-05 01:48 | 30.62867 | 126.90672 | 30162 ft | 411 kts | 219° |
| 2026-05-05 01:48 | 30.58049 | 126.87044 | 30158 ft | 411 kts | 219° |
| 2026-05-05 01:49 | 30.53237 | 126.83424 | 30158 ft | 411 kts | 219° |
| 2026-05-05 01:49 | 30.48443 | 126.79822 | 30154 ft | 412 kts | 219° |
| 2026-05-05 01:50 | 30.43621 | 126.76204 | 30156 ft | 409 kts | 219° |
| 2026-05-05 01:50 | 30.38842 | 126.72620 | 30152 ft | 411 kts | 219° |
| 2026-05-05 01:51 | 30.34048 | 126.69031 | 30158 ft | 412 kts | 219° |
| 2026-05-05 01:51 | 30.29231 | 126.65430 | 30149 ft | 410 kts | 219° |
| 2026-05-05 01:52 | 30.24440 | 126.61852 | 30153 ft | 410 kts | 219° |
| 2026-05-05 01:52 | 30.19632 | 126.58264 | 30149 ft | 411 kts | 219° |
| 2026-05-05 01:53 | 30.14859 | 126.54709 | 30146 ft | 409 kts | 219° |
| 2026-05-05 01:53 | 30.10054 | 126.51131 | 30147 ft | 411 kts | 219° |
| 2026-05-05 01:54 | 30.05234 | 126.47549 | 30148 ft | 410 kts | 219° |
| 2026-05-05 01:54 | 30.00420 | 126.43974 | 30151 ft | 410 kts | 219° |
| 2026-05-05 01:55 | 29.95608 | 126.40405 | 30150 ft | 409 kts | 219° |
| 2026-05-05 01:55 | 29.90815 | 126.36855 | 30140 ft | 411 kts | 219° |
| 2026-05-05 01:56 | 29.85966 | 126.33266 | 30171 ft | 412 kts | 218° |
| 2026-05-05 01:56 | 29.81146 | 126.29704 | 30163 ft | 412 kts | 218° |
| 2026-05-05 01:57 | 29.76323 | 126.26144 | 30165 ft | 411 kts | 218° |
| 2026-05-05 01:57 | 29.71516 | 126.22599 | 30160 ft | 411 kts | 218° |
| 2026-05-05 01:58 | 29.66691 | 126.19046 | 30161 ft | 412 kts | 218° |
| 2026-05-05 01:58 | 29.61812 | 126.15456 | 30149 ft | 413 kts | 218° |
| 2026-05-05 01:59 | 29.56966 | 126.11896 | 30158 ft | 413 kts | 218° |
| 2026-05-05 01:59 | 29.52071 | 126.08304 | 30156 ft | 411 kts | 218° |
| 2026-05-05 02:00 | 29.47208 | 126.04738 | 30149 ft | 412 kts | 218° |
| 2026-05-05 02:00 | 29.42282 | 126.01131 | 30149 ft | 412 kts | 218° |
| 2026-05-05 02:01 | 29.37420 | 125.97575 | 30146 ft | 413 kts | 218° |
| 2026-05-05 02:01 | 29.32555 | 125.94021 | 30143 ft | 413 kts | 218° |
| 2026-05-05 02:02 | 29.27709 | 125.90485 | 30136 ft | 412 kts | 218° |
| 2026-05-05 02:02 | 29.22832 | 125.86930 | 30129 ft | 413 kts | 217° |
| 2026-05-05 02:03 | 29.17975 | 125.83395 | 30129 ft | 412 kts | 218° |
| 2026-05-05 02:03 | 29.13102 | 125.79850 | 30128 ft | 414 kts | 218° |
| 2026-05-05 02:04 | 29.08237 | 125.76316 | 30127 ft | 414 kts | 218° |
| 2026-05-05 02:04 | 29.03357 | 125.72775 | 30118 ft | 415 kts | 218° |
| 2026-05-05 02:05 | 28.98457 | 125.69224 | 30118 ft | 417 kts | 218° |
| 2026-05-05 02:05 | 28.93550 | 125.65672 | 30122 ft | 415 kts | 217° |
| 2026-05-05 02:06 | 28.88672 | 125.62145 | 30128 ft | 414 kts | 217° |
| 2026-05-05 02:06 | 28.83802 | 125.58627 | 30127 ft | 417 kts | 218° |
| 2026-05-05 02:07 | 28.78906 | 125.55096 | 30128 ft | 414 kts | 218° |
| 2026-05-05 02:07 | 28.74021 | 125.51575 | 30125 ft | 413 kts | 218° |
| 2026-05-05 02:08 | 28.69134 | 125.48057 | 30124 ft | 414 kts | 218° |
| 2026-05-05 02:08 | 28.64249 | 125.44544 | 30123 ft | 415 kts | 218° |
| 2026-05-05 02:09 | 28.59368 | 125.41039 | 30123 ft | 416 kts | 217° |
| 2026-05-05 02:09 | 28.54482 | 125.37533 | 30121 ft | 416 kts | 218° |
| 2026-05-05 02:10 | 28.49572 | 125.34013 | 30134 ft | 416 kts | 217° |
| 2026-05-05 02:10 | 28.44667 | 125.30502 | 30138 ft | 417 kts | 217° |
| 2026-05-05 02:11 | 28.39757 | 125.26992 | 30134 ft | 417 kts | 217° |
| 2026-05-05 02:11 | 28.34842 | 125.23482 | 30134 ft | 416 kts | 217° |
| 2026-05-05 02:12 | 28.27456 | 125.18213 | 30134 ft | 418 kts | 217° |
| 2026-05-05 02:13 | 28.22546 | 125.14716 | 30129 ft | 417 kts | 217° |
| 2026-05-05 02:13 | 28.17617 | 125.11209 | 30130 ft | 417 kts | 218° |
| 2026-05-05 02:14 | 28.12702 | 125.07716 | 30131 ft | 419 kts | 217° |
| 2026-05-05 02:14 | 28.07769 | 125.04214 | 30124 ft | 416 kts | 217° |
| 2026-05-05 02:15 | 28.02824 | 125.00707 | 30124 ft | 417 kts | 217° |
| 2026-05-05 02:15 | 27.97907 | 124.97223 | 30125 ft | 420 kts | 217° |
| 2026-05-05 02:16 | 27.92940 | 124.93710 | 30119 ft | 419 kts | 217° |
| 2026-05-05 02:16 | 27.87977 | 124.90201 | 30129 ft | 420 kts | 217° |
| 2026-05-05 02:17 | 27.83024 | 124.86704 | 30130 ft | 419 kts | 217° |
| 2026-05-05 02:17 | 27.78062 | 124.83204 | 30127 ft | 419 kts | 217° |
| 2026-05-05 02:18 | 27.73100 | 124.79709 | 30122 ft | 420 kts | 217° |
| 2026-05-05 02:18 | 27.68135 | 124.76215 | 30122 ft | 419 kts | 217° |
| 2026-05-05 02:19 | 27.63221 | 124.72668 | 30118 ft | 416 kts | 222° |
| 2026-05-05 02:19 | 27.59232 | 124.68039 | 30118 ft | 412 kts | 233° |
| 2026-05-05 02:20 | 27.55590 | 124.63026 | 30113 ft | 411 kts | 233° |
| 2026-05-05 02:20 | 27.51959 | 124.58048 | 30114 ft | 412 kts | 233° |
| 2026-05-05 02:21 | 27.48321 | 124.53075 | 30108 ft | 413 kts | 233° |
| 2026-05-05 02:21 | 27.44675 | 124.48103 | 30109 ft | 412 kts | 233° |
| 2026-05-05 02:22 | 27.41008 | 124.43108 | 30103 ft | 413 kts | 233° |
| 2026-05-05 02:22 | 27.37335 | 124.38113 | 30106 ft | 413 kts | 233° |
| 2026-05-05 02:23 | 27.33667 | 124.33131 | 30123 ft | 413 kts | 232° |
| 2026-05-05 02:23 | 27.29970 | 124.28115 | 30125 ft | 412 kts | 232° |
| 2026-05-05 02:24 | 27.26300 | 124.23142 | 30110 ft | 413 kts | 232° |
| 2026-05-05 02:24 | 27.22630 | 124.18175 | 30117 ft | 413 kts | 232° |
| 2026-05-05 02:25 | 27.18934 | 124.13178 | 30116 ft | 413 kts | 232° |
| 2026-05-05 02:25 | 27.15243 | 124.08193 | 30110 ft | 414 kts | 232° |
| 2026-05-05 02:26 | 27.11561 | 124.03226 | 30110 ft | 414 kts | 232° |
| 2026-05-05 02:26 | 27.07864 | 123.98257 | 30112 ft | 414 kts | 232° |
| 2026-05-05 02:27 | 27.04135 | 123.93302 | 30106 ft | 415 kts | 232° |
| 2026-05-05 02:27 | 27.00409 | 123.88357 | 30110 ft | 415 kts | 232° |
| 2026-05-05 02:28 | 26.96692 | 123.83427 | 30110 ft | 414 kts | 232° |
| 2026-05-05 02:28 | 26.92967 | 123.78490 | 30111 ft | 415 kts | 232° |
| 2026-05-05 02:29 | 26.89248 | 123.73569 | 30114 ft | 413 kts | 232° |
| 2026-05-05 02:29 | 26.85522 | 123.68642 | 30120 ft | 414 kts | 232° |
| 2026-05-05 02:30 | 26.81796 | 123.63721 | 30113 ft | 415 kts | 232° |
| 2026-05-05 02:30 | 26.78061 | 123.58793 | 30110 ft | 413 kts | 232° |
| 2026-05-05 02:31 | 26.74331 | 123.53878 | 30104 ft | 414 kts | 232° |
| 2026-05-05 02:31 | 26.70562 | 123.48917 | 30109 ft | 414 kts | 232° |
| 2026-05-05 02:32 | 26.66846 | 123.44031 | 30108 ft | 414 kts | 232° |
| 2026-05-05 02:32 | 26.63102 | 123.39114 | 30098 ft | 414 kts | 232° |
| 2026-05-05 02:33 | 26.59355 | 123.34199 | 30111 ft | 414 kts | 232° |
| 2026-05-05 02:33 | 26.55580 | 123.29253 | 30117 ft | 414 kts | 232° |
| 2026-05-05 02:34 | 26.51908 | 123.24448 | 30111 ft | 414 kts | 232° |
| 2026-05-05 02:34 | 26.48162 | 123.19550 | 30108 ft | 414 kts | 232° |
| 2026-05-05 02:35 | 26.44403 | 123.14642 | 30105 ft | 413 kts | 232° |
| 2026-05-05 02:35 | 26.40678 | 123.09782 | 30109 ft | 412 kts | 232° |
| 2026-05-05 02:36 | 26.36937 | 123.04907 | 30102 ft | 414 kts | 232° |
| 2026-05-05 02:36 | 26.33196 | 123.00038 | 30102 ft | 414 kts | 232° |
| 2026-05-05 02:37 | 26.29437 | 122.95153 | 30088 ft | 414 kts | 232° |
| 2026-05-05 02:37 | 26.25688 | 122.90286 | 30085 ft | 413 kts | 232° |
| 2026-05-05 02:38 | 26.21945 | 122.85432 | 30075 ft | 416 kts | 232° |
| 2026-05-05 02:38 | 26.18181 | 122.80556 | 30080 ft | 415 kts | 232° |
| 2026-05-05 02:39 | 26.14420 | 122.75689 | 30075 ft | 415 kts | 232° |
| 2026-05-05 02:39 | 26.10635 | 122.70797 | 30071 ft | 415 kts | 232° |
| 2026-05-05 02:40 | 26.06851 | 122.65911 | 30073 ft | 416 kts | 232° |
| 2026-05-05 02:40 | 26.03072 | 122.61037 | 30062 ft | 417 kts | 232° |
| 2026-05-05 02:41 | 25.99290 | 122.56164 | 30055 ft | 418 kts | 232° |
| 2026-05-05 02:41 | 25.95485 | 122.51268 | 30023 ft | 413 kts | 232° |
| 2026-05-05 02:41 | 25.93602 | 122.48847 | 29467 ft | 410 kts | 232° |
| 2026-05-05 02:42 | 25.91768 | 122.46489 | 28927 ft | 404 kts | 232° |
| 2026-05-05 02:42 | 25.89936 | 122.44135 | 28518 ft | 397 kts | 232° |
| 2026-05-05 02:42 | 25.88140 | 122.41828 | 28047 ft | 392 kts | 232° |
| 2026-05-05 02:42 | 25.86330 | 122.39500 | 27543 ft | 408 kts | 232° |
| 2026-05-05 02:43 | 25.84448 | 122.37082 | 26990 ft | 415 kts | 232° |
| 2026-05-05 02:43 | 25.82558 | 122.34659 | 26451 ft | 410 kts | 231° |
| 2026-05-05 02:43 | 25.80652 | 122.32217 | 25909 ft | 405 kts | 231° |
| 2026-05-05 02:43 | 25.78790 | 122.29832 | 25361 ft | 401 kts | 231° |
| 2026-05-05 02:44 | 25.76967 | 122.27497 | 24809 ft | 397 kts | 231° |
| 2026-05-05 02:44 | 25.75161 | 122.25185 | 24252 ft | 394 kts | 231° |
| 2026-05-05 02:44 | 25.73384 | 122.22912 | 23697 ft | 390 kts | 231° |
| 2026-05-05 02:44 | 25.71602 | 122.20633 | 23170 ft | 387 kts | 231° |
| 2026-05-05 02:45 | 25.69846 | 122.18388 | 22633 ft | 384 kts | 231° |
| 2026-05-05 02:45 | 25.68113 | 122.16175 | 22121 ft | 381 kts | 231° |
| 2026-05-05 02:45 | 25.66379 | 122.13961 | 21587 ft | 379 kts | 231° |
| 2026-05-05 02:45 | 25.64656 | 122.11761 | 21052 ft | 377 kts | 231° |
| 2026-05-05 02:46 | 25.62982 | 122.09502 | 20496 ft | 374 kts | 236° |
| 2026-05-05 02:46 | 25.61666 | 122.07062 | 19975 ft | 370 kts | 244° |
| 2026-05-05 02:46 | 25.60729 | 122.04397 | 19653 ft | 367 kts | 253° |
| 2026-05-05 02:46 | 25.59997 | 122.01598 | 19467 ft | 376 kts | 253° |
| 2026-05-05 02:47 | 25.59288 | 121.98840 | 19187 ft | 373 kts | 253° |
| 2026-05-05 02:47 | 25.58576 | 121.96058 | 18901 ft | 370 kts | 253° |
| 2026-05-05 02:47 | 25.57876 | 121.93323 | 18651 ft | 371 kts | 254° |
| 2026-05-05 02:47 | 25.57176 | 121.90594 | 18414 ft | 369 kts | 253° |
| 2026-05-05 02:48 | 25.56468 | 121.87825 | 18125 ft | 371 kts | 254° |
| 2026-05-05 02:48 | 25.55773 | 121.85105 | 17860 ft | 366 kts | 253° |
| 2026-05-05 02:48 | 25.55077 | 121.82384 | 17583 ft | 366 kts | 255° |
| 2026-05-05 02:48 | 25.54377 | 121.79654 | 17338 ft | 368 kts | 254° |
| 2026-05-05 02:49 | 25.53674 | 121.76910 | 17065 ft | 363 kts | 253° |
| 2026-05-05 02:49 | 25.52966 | 121.74152 | 16774 ft | 362 kts | 253° |
| 2026-05-05 02:49 | 25.52272 | 121.71450 | 16512 ft | 363 kts | 253° |
| 2026-05-05 02:49 | 25.51583 | 121.68765 | 16222 ft | 360 kts | 253° |
| 2026-05-05 02:50 | 25.50894 | 121.66087 | 15925 ft | 356 kts | 254° |
| 2026-05-05 02:50 | 25.50221 | 121.63469 | 15699 ft | 357 kts | 254° |
| 2026-05-05 02:50 | 25.49538 | 121.60825 | 15463 ft | 357 kts | 253° |
| 2026-05-05 02:50 | 25.48638 | 121.58269 | 15192 ft | 354 kts | 244° |
| 2026-05-05 02:51 | 25.47341 | 121.55947 | 14888 ft | 352 kts | 234° |
| 2026-05-05 02:51 | 25.45783 | 121.53861 | 14637 ft | 352 kts | 232° |
| 2026-05-05 02:51 | 25.44176 | 121.51774 | 14134 ft | 358 kts | 232° |
| 2026-05-05 02:51 | 25.42550 | 121.49677 | 13524 ft | 357 kts | 232° |
| 2026-05-05 02:52 | 25.40922 | 121.47586 | 12989 ft | 354 kts | 232° |
| 2026-05-05 02:52 | 25.39284 | 121.45486 | 12458 ft | 352 kts | 231° |
| 2026-05-05 02:52 | 25.37683 | 121.43439 | 11923 ft | 350 kts | 231° |
| 2026-05-05 02:52 | 25.36087 | 121.41398 | 11398 ft | 348 kts | 231° |
| 2026-05-05 02:53 | 25.34521 | 121.39397 | 10910 ft | 344 kts | 231° |
| 2026-05-05 02:53 | 25.32972 | 121.37421 | 10781 ft | 330 kts | 231° |
| 2026-05-05 02:53 | 25.31500 | 121.35545 | 10702 ft | 316 kts | 231° |
| 2026-05-05 02:53 | 25.30094 | 121.33751 | 10588 ft | 303 kts | 231° |
| 2026-05-05 02:54 | 25.28712 | 121.31987 | 10459 ft | 292 kts | 230° |
| 2026-05-05 02:54 | 25.27391 | 121.30304 | 10307 ft | 281 kts | 231° |
| 2026-05-05 02:54 | 25.26103 | 121.28663 | 10200 ft | 270 kts | 231° |
| 2026-05-05 02:54 | 25.24842 | 121.27057 | 10067 ft | 260 kts | 231° |
| 2026-05-05 02:55 | 25.23630 | 121.25512 | 9702 ft | 260 kts | 230° |
| 2026-05-05 02:55 | 25.22397 | 121.23942 | 9273 ft | 261 kts | 230° |
| 2026-05-05 02:55 | 25.21173 | 121.22384 | 8896 ft | 261 kts | 230° |
| 2026-05-05 02:55 | 25.19958 | 121.20838 | 8545 ft | 260 kts | 229° |
| 2026-05-05 02:56 | 25.18726 | 121.19271 | 8181 ft | 260 kts | 229° |
| 2026-05-05 02:56 | 25.17518 | 121.17736 | 7824 ft | 259 kts | 229° |
| 2026-05-05 02:56 | 25.16283 | 121.16167 | 7467 ft | 258 kts | 228° |
| 2026-05-05 02:56 | 25.15071 | 121.14628 | 7127 ft | 257 kts | 228° |
| 2026-05-05 02:57 | 25.13863 | 121.13094 | 6784 ft | 256 kts | 227° |
| 2026-05-05 02:57 | 25.12666 | 121.11574 | 6441 ft | 255 kts | 227° |
| 2026-05-05 02:57 | 25.11486 | 121.10077 | 6104 ft | 255 kts | 228° |
| 2026-05-05 02:57 | 25.10298 | 121.08566 | 5781 ft | 253 kts | 228° |
| 2026-05-05 02:58 | 25.09106 | 121.07052 | 5440 ft | 253 kts | 228° |
| 2026-05-05 02:58 | 25.07941 | 121.05572 | 5126 ft | 252 kts | 228° |
| 2026-05-05 02:58 | 25.06819 | 121.04148 | 5052 ft | 240 kts | 228° |
| 2026-05-05 02:58 | 25.05755 | 121.02797 | 5029 ft | 224 kts | 229° |
| 2026-05-05 02:59 | 25.04762 | 121.01540 | 4993 ft | 208 kts | 231° |
| 2026-05-05 02:59 | 25.03909 | 121.00269 | 4768 ft | 203 kts | 227° |
| 2026-05-05 02:59 | 25.02716 | 120.99451 | 4316 ft | 207 kts | 193° |
| 2026-05-05 02:59 | 25.01292 | 120.99570 | 3885 ft | 212 kts | 160° |
| 2026-05-05 03:00 | 24.99942 | 121.00259 | 3560 ft | 212 kts | 155° |
| 2026-05-05 03:00 | 24.98609 | 121.00979 | 3250 ft | 211 kts | 155° |
| 2026-05-05 03:00 | 24.97281 | 121.01692 | 2948 ft | 210 kts | 155° |
| 2026-05-05 03:00 | 24.96018 | 121.02409 | 2811 ft | 198 kts | 143° |
| 2026-05-05 03:01 | 24.95238 | 121.03598 | 2603 ft | 189 kts | 104° |
| 2026-05-05 03:01 | 24.95283 | 121.04991 | 2508 ft | 184 kts | 77° |
| 2026-05-05 03:01 | 24.95574 | 121.06405 | 2484 ft | 184 kts | 70° |
| 2026-05-05 03:01 | 24.96214 | 121.07651 | 2490 ft | 188 kts | 52° |
| 2026-05-05 03:02 | 24.97053 | 121.08734 | 2485 ft | 186 kts | 48° |
| 2026-05-05 03:02 | 24.97930 | 121.09813 | 2487 ft | 186 kts | 48° |
| 2026-05-05 03:02 | 24.98805 | 121.10904 | 2487 ft | 184 kts | 49° |
| 2026-05-05 03:02 | 24.99661 | 121.11980 | 2331 ft | 183 kts | 49° |
| 2026-05-05 03:03 | 25.00485 | 121.13018 | 2102 ft | 176 kts | 49° |
| 2026-05-05 03:03 | 25.01274 | 121.14012 | 1880 ft | 165 kts | 50° |
| 2026-05-05 03:03 | 25.02013 | 121.14945 | 1678 ft | 151 kts | 50° |
| 2026-05-05 03:03 | 25.02705 | 121.15821 | 1487 ft | 151 kts | 50° |
| 2026-05-05 03:04 | 25.03402 | 121.16699 | 1281 ft | 151 kts | 51° |
| 2026-05-05 03:04 | 25.04092 | 121.17573 | 1083 ft | 151 kts | 51° |
| 2026-05-05 03:04 | 25.04799 | 121.18468 | 878 ft | 151 kts | 51° |
| 2026-05-05 03:04 | 25.05482 | 121.19370 | 658 ft | 152 kts | 52° |
| 2026-05-05 03:05 | 25.06171 | 121.20268 | 478 ft | 155 kts | 50° |
| 2026-05-05 03:05 | 25.06950 | 121.21164 | 259 ft | 158 kts | 49° |
| 2026-05-05 03:05 | 25.07661 | 121.22071 | 133 ft | 150 kts | 51° |
| 2026-05-05 03:05 | 25.08278 | 121.22854 | 121 ft | 113 kts | 49° |
| 2026-05-05 03:06 | 25.08695 | 121.23386 | 121 ft | 69 kts | 49° |
| 2026-05-05 03:06 | 25.08912 | 121.23681 | 121 ft | 40 kts | 65° |
| 2026-05-05 03:06 | 25.08964 | 121.23872 | 121 ft | 20 kts | 79° |
| 2026-05-05 03:06 | 25.08963 | 121.23954 | 121 ft | 6 kts | 124° |
| 2026-05-05 03:07 | 25.08922 | 121.23968 | 121 ft | 6 kts | 194° |
| 2026-05-05 03:07 | 25.08886 | 121.23944 | 121 ft | 4 kts | 227° |
| 2026-05-05 03:07 | 25.08863 | 121.23931 | 121 ft | 4 kts | 171° |
| 2026-05-05 03:07 | 25.08834 | 121.23949 | 121 ft | 6 kts | 141° |
| 2026-05-05 03:08 | 25.08802 | 121.23980 | 121 ft | 3 kts | 137° |
| 2026-05-05 03:08 | 25.08786 | 121.23995 | 121 ft | 2 kts | 138° |
| 2026-05-05 03:08 | 25.08781 | 121.24000 | 121 ft | 0 kts | 139° |
| 2026-05-05 03:08 | 25.08779 | 121.24002 | 121 ft | 0 kts | 139° |